PWSweather.com
Personal Weather Stations
Station Observations
SONYA
Sergiev PosadRU

Sergiev PosadRU

Lat: 56.28148651, Lon: 38.05462646

Elevation: 741

Station Type: Fine offset WH1091

High Low Average
Temperature 27.9°F-2.3°C 22.6°F-5.2°C 25.0°F-3.9°C
Dew Point 25.1°F-3.8°C 19.6°F-6.9°C 22.0°F-5.6°C
Winds 6.0 mph 9.7 kmh Calm Calm 2.0 mph ENE3.2 kmh ENE
Wind Gusts 8.3 mph13.4 kmh -- 3.0 mph4.8 kmh
Humidity 85% 82% 83%
Pressure 29.34 in993.6 mb 29.25 in990.5 mb -
Precipitation 0.00 in0.0 mm - -
Hour Temp Dew Point Humidity Winds Wind Gusts Pressure Precip Precip Rate Daily Precip Total
12:01 AM 29.1°F-1.6°C 27.3°F-2.6°C 90% 3.8 mph NE6.1 kmh NE 6.0 mph9.7 kmh 29.25 in990.5 mb 0.00 in0.0 mm 0.00 in0.0 mm 0.00 in0.0 mm
12:06 AM 29.1°F-1.6°C 27.3°F-2.6°C 90% 6.9 mph NE11.1 kmh NE 8.3 mph13.4 kmh 29.25 in990.5 mb 0.00 in0.0 mm 0.00 in0.0 mm 0.00 in0.0 mm
12:11 AM 28.9°F-1.7°C 27.1°F-2.7°C 90% 2.2 mph NE3.5 kmh NE 4.5 mph7.2 kmh 29.25 in990.5 mb 0.00 in0.0 mm 0.00 in0.0 mm 0.00 in0.0 mm
12:16 AM 28.9°F-1.7°C 27.1°F-2.7°C 90% 3.1 mph NE5.0 kmh NE 4.5 mph7.2 kmh 29.25 in990.5 mb 0.00 in0.0 mm 0.00 in0.0 mm 0.00 in0.0 mm
12:21 AM 28.9°F-1.7°C 27.1°F-2.7°C 90% 1.6 mph E2.6 kmh E 3.1 mph5.0 kmh 29.25 in990.5 mb 0.00 in0.0 mm 0.00 in0.0 mm 0.00 in0.0 mm
12:26 AM 28.9°F-1.7°C 27.1°F-2.7°C 90% Calm Calm 1.6 mph2.6 kmh 29.26 in990.9 mb 0.00 in0.0 mm 0.00 in0.0 mm 0.00 in0.0 mm
12:31 AM 28.8°F-1.8°C 27.0°F-2.8°C 90% 3.1 mph NNW5.0 kmh NNW 5.4 mph8.7 kmh 29.25 in990.5 mb 0.00 in0.0 mm 0.00 in0.0 mm 0.00 in0.0 mm
12:36 AM 28.8°F-1.8°C 27.0°F-2.8°C 90% Calm Calm 1.6 mph2.6 kmh 29.26 in990.9 mb 0.00 in0.0 mm 0.00 in0.0 mm 0.00 in0.0 mm
12:41 AM 28.8°F-1.8°C 27.0°F-2.8°C 90% 2.2 mph E3.5 kmh E 4.5 mph7.2 kmh 29.25 in990.5 mb 0.00 in0.0 mm 0.00 in0.0 mm 0.00 in0.0 mm
12:46 AM 28.8°F-1.8°C 27.0°F-2.8°C 90% 2.2 mph NE3.5 kmh NE 6.9 mph11.1 kmh 29.25 in990.5 mb 0.00 in0.0 mm 0.00 in0.0 mm 0.00 in0.0 mm
12:47 AM 28.8°F-1.8°C 27.0°F-2.8°C 90% Calm Calm -- 29.26 in990.9 mb 0.00 in0.0 mm 0.00 in0.0 mm 0.00 in0.0 mm
12:51 AM 28.6°F-1.9°C 26.8°F-2.9°C 90% 1.6 mph E2.6 kmh E 3.1 mph5.0 kmh 29.25 in990.5 mb 0.00 in0.0 mm 0.00 in0.0 mm 0.00 in0.0 mm
12:52 AM 28.8°F-1.8°C 27.0°F-2.8°C 90% 2.2 mph NE3.5 kmh NE 5.4 mph8.7 kmh 29.25 in990.5 mb 0.00 in0.0 mm 0.00 in0.0 mm 0.00 in0.0 mm
12:56 AM 28.6°F-1.9°C 26.8°F-2.9°C 90% 3.1 mph NE5.0 kmh NE 3.8 mph6.1 kmh 29.25 in990.5 mb 0.00 in0.0 mm 0.00 in0.0 mm 0.00 in0.0 mm
01:01 AM 28.6°F-1.9°C 26.8°F-2.9°C 90% 2.2 mph NE3.5 kmh NE 3.8 mph6.1 kmh 29.25 in990.5 mb 0.00 in0.0 mm 0.00 in0.0 mm 0.00 in0.0 mm
01:06 AM 28.6°F-1.9°C 26.6°F-3.0°C 89% 0.7 mph 1.1 kmh 3.1 mph5.0 kmh 29.26 in990.9 mb 0.00 in0.0 mm 0.00 in0.0 mm 0.00 in0.0 mm
01:11 AM 28.4°F-2.0°C 26.4°F-3.1°C 89% 2.2 mph NE3.5 kmh NE 4.5 mph7.2 kmh 29.25 in990.5 mb 0.00 in0.0 mm 0.00 in0.0 mm 0.00 in0.0 mm
01:16 AM 28.4°F-2.0°C 26.4°F-3.1°C 89% 2.2 mph NE3.5 kmh NE 4.5 mph7.2 kmh 29.25 in990.5 mb 0.00 in0.0 mm 0.00 in0.0 mm 0.00 in0.0 mm
01:21 AM 28.4°F-2.0°C 26.4°F-3.1°C 89% 3.1 mph SE5.0 kmh SE 3.8 mph6.1 kmh 29.25 in990.5 mb 0.00 in0.0 mm 0.00 in0.0 mm 0.00 in0.0 mm
01:26 AM 28.4°F-2.0°C 26.4°F-3.1°C 89% 3.1 mph E5.0 kmh E 6.0 mph9.7 kmh 29.25 in990.5 mb 0.00 in0.0 mm 0.00 in0.0 mm 0.00 in0.0 mm
01:31 AM 28.2°F-2.1°C 25.4°F-3.7°C 85% 1.6 mph 2.6 kmh 3.1 mph5.0 kmh 29.25 in990.5 mb 0.00 in0.0 mm 0.00 in0.0 mm 0.00 in0.0 mm
01:36 AM 28.2°F-2.1°C 25.4°F-3.7°C 85% 0.7 mph E1.1 kmh E 2.2 mph3.5 kmh 29.25 in990.5 mb 0.00 in0.0 mm 0.00 in0.0 mm 0.00 in0.0 mm
01:41 AM 28.2°F-2.1°C 25.4°F-3.7°C 85% 3.1 mph E5.0 kmh E 6.9 mph11.1 kmh 29.25 in990.5 mb 0.00 in0.0 mm 0.00 in0.0 mm 0.00 in0.0 mm
01:46 AM 28.2°F-2.1°C 25.4°F-3.7°C 85% 2.2 mph SE3.5 kmh SE 4.5 mph7.2 kmh 29.25 in990.5 mb 0.00 in0.0 mm 0.00 in0.0 mm 0.00 in0.0 mm
01:51 AM 28.2°F-2.1°C 25.4°F-3.7°C 85% 2.2 mph NE3.5 kmh NE 3.8 mph6.1 kmh 29.25 in990.5 mb 0.00 in0.0 mm 0.00 in0.0 mm 0.00 in0.0 mm
01:56 AM 28.2°F-2.1°C 25.4°F-3.7°C 85% 2.2 mph E3.5 kmh E 3.1 mph5.0 kmh 29.25 in990.5 mb 0.00 in0.0 mm 0.00 in0.0 mm 0.00 in0.0 mm
02:01 AM 28.2°F-2.1°C 25.4°F-3.7°C 85% 2.2 mph SE3.5 kmh SE 4.5 mph7.2 kmh 29.25 in990.5 mb 0.00 in0.0 mm 0.00 in0.0 mm 0.00 in0.0 mm
02:06 AM 28.0°F-2.2°C 25.3°F-3.7°C 85% 2.2 mph SE3.5 kmh SE 3.1 mph5.0 kmh 29.25 in990.5 mb 0.00 in0.0 mm 0.00 in0.0 mm 0.00 in0.0 mm
02:11 AM 28.0°F-2.2°C 25.3°F-3.7°C 85% 2.2 mph SE3.5 kmh SE 3.1 mph5.0 kmh 29.25 in990.5 mb 0.00 in0.0 mm 0.00 in0.0 mm 0.00 in0.0 mm
02:16 AM 28.0°F-2.2°C 25.3°F-3.7°C 85% 4.5 mph 7.2 kmh 6.9 mph11.1 kmh 29.25 in990.5 mb 0.00 in0.0 mm 0.00 in0.0 mm 0.00 in0.0 mm
02:21 AM 28.0°F-2.2°C 25.3°F-3.7°C 85% 1.6 mph E2.6 kmh E 2.2 mph3.5 kmh 29.25 in990.5 mb 0.00 in0.0 mm 0.00 in0.0 mm 0.00 in0.0 mm
02:26 AM 28.0°F-2.2°C 25.3°F-3.7°C 85% Calm Calm 1.6 mph2.6 kmh 29.25 in990.5 mb 0.00 in0.0 mm 0.00 in0.0 mm 0.00 in0.0 mm
02:31 AM 28.0°F-2.2°C 25.3°F-3.7°C 85% 1.6 mph E2.6 kmh E 3.1 mph5.0 kmh 29.25 in990.5 mb 0.00 in0.0 mm 0.00 in0.0 mm 0.00 in0.0 mm
02:36 AM 28.0°F-2.2°C 25.3°F-3.7°C 85% 1.6 mph NE2.6 kmh NE 5.4 mph8.7 kmh 29.25 in990.5 mb 0.00 in0.0 mm 0.00 in0.0 mm 0.00 in0.0 mm
02:41 AM 27.9°F-2.3°C 25.1°F-3.8°C 85% 1.6 mph E2.6 kmh E 4.5 mph7.2 kmh 29.25 in990.5 mb 0.00 in0.0 mm 0.00 in0.0 mm 0.00 in0.0 mm
02:46 AM 27.9°F-2.3°C 25.1°F-3.8°C 85% 0.7 mph SE1.1 kmh SE 2.2 mph3.5 kmh 29.26 in990.9 mb 0.00 in0.0 mm 0.00 in0.0 mm 0.00 in0.0 mm
02:47 AM 27.9°F-2.3°C 25.1°F-3.8°C 85% 0.7 mph 1.1 kmh 1.6 mph2.6 kmh 29.25 in990.5 mb 0.00 in0.0 mm 0.00 in0.0 mm 0.00 in0.0 mm
02:51 AM 27.9°F-2.3°C 25.1°F-3.8°C 85% 0.7 mph E1.1 kmh E 2.2 mph3.5 kmh 29.26 in990.9 mb 0.00 in0.0 mm 0.00 in0.0 mm 0.00 in0.0 mm
02:52 AM 27.9°F-2.3°C 25.1°F-3.8°C 85% 1.6 mph SE2.6 kmh SE 3.1 mph5.0 kmh 29.26 in990.9 mb 0.00 in0.0 mm 0.00 in0.0 mm 0.00 in0.0 mm
02:56 AM 27.9°F-2.3°C 25.1°F-3.8°C 85% 0.7 mph S1.1 kmh S 2.2 mph3.5 kmh 29.26 in990.9 mb 0.00 in0.0 mm 0.00 in0.0 mm 0.00 in0.0 mm
03:01 AM 27.9°F-2.3°C 25.1°F-3.8°C 85% 1.6 mph SE2.6 kmh SE 3.1 mph5.0 kmh 29.26 in990.9 mb 0.00 in0.0 mm 0.00 in0.0 mm 0.00 in0.0 mm
03:06 AM 27.9°F-2.3°C 25.1°F-3.8°C 85% 2.2 mph NE3.5 kmh NE 3.8 mph6.1 kmh 29.26 in990.9 mb 0.00 in0.0 mm 0.00 in0.0 mm 0.00 in0.0 mm
03:11 AM 27.9°F-2.3°C 25.1°F-3.8°C 85% 1.6 mph SE2.6 kmh SE 3.1 mph5.0 kmh 29.26 in990.9 mb 0.00 in0.0 mm 0.00 in0.0 mm 0.00 in0.0 mm
03:16 AM 27.9°F-2.3°C 25.1°F-3.8°C 85% 1.6 mph ENE2.6 kmh ENE 3.1 mph5.0 kmh 29.26 in990.9 mb 0.00 in0.0 mm 0.00 in0.0 mm 0.00 in0.0 mm
03:21 AM 27.9°F-2.3°C 25.1°F-3.8°C 85% 0.7 mph E1.1 kmh E 2.2 mph3.5 kmh 29.26 in990.9 mb 0.00 in0.0 mm 0.00 in0.0 mm 0.00 in0.0 mm
03:26 AM 27.9°F-2.3°C 25.1°F-3.8°C 85% 0.7 mph E1.1 kmh E 1.6 mph2.6 kmh 29.26 in990.9 mb 0.00 in0.0 mm 0.00 in0.0 mm 0.00 in0.0 mm
03:27 AM 27.9°F-2.3°C 25.1°F-3.8°C 85% 0.7 mph W1.1 kmh W 3.1 mph5.0 kmh 29.26 in990.9 mb 0.00 in0.0 mm 0.00 in0.0 mm 0.00 in0.0 mm
03:31 AM 27.9°F-2.3°C 25.1°F-3.8°C 85% Calm Calm -- 29.26 in990.9 mb 0.00 in0.0 mm 0.00 in0.0 mm 0.00 in0.0 mm
03:32 AM 27.9°F-2.3°C 25.1°F-3.8°C 85% Calm Calm 1.6 mph2.6 kmh 29.25 in990.5 mb 0.00 in0.0 mm 0.00 in0.0 mm 0.00 in0.0 mm
03:36 AM 27.9°F-2.3°C 25.1°F-3.8°C 85% Calm Calm 0.7 mph1.1 kmh 29.26 in990.9 mb 0.00 in0.0 mm 0.00 in0.0 mm 0.00 in0.0 mm
03:41 AM 27.9°F-2.3°C 25.1°F-3.8°C 85% 1.6 mph E2.6 kmh E 3.1 mph5.0 kmh 29.26 in990.9 mb 0.00 in0.0 mm 0.00 in0.0 mm 0.00 in0.0 mm
03:46 AM 27.7°F-2.4°C 24.9°F-3.9°C 85% Calm Calm 0.7 mph1.1 kmh 29.26 in990.9 mb 0.00 in0.0 mm 0.00 in0.0 mm 0.00 in0.0 mm
03:51 AM 27.7°F-2.4°C 24.9°F-3.9°C 85% 0.7 mph NE1.1 kmh NE 3.1 mph5.0 kmh 29.26 in990.9 mb 0.00 in0.0 mm 0.00 in0.0 mm 0.00 in0.0 mm
03:56 AM 27.7°F-2.4°C 24.9°F-3.9°C 85% 2.2 mph SW3.5 kmh SW 3.8 mph6.1 kmh 29.26 in990.9 mb 0.00 in0.0 mm 0.00 in0.0 mm 0.00 in0.0 mm
04:01 AM 27.7°F-2.4°C 24.9°F-3.9°C 85% 0.7 mph E1.1 kmh E 2.2 mph3.5 kmh 29.26 in990.9 mb 0.00 in0.0 mm 0.00 in0.0 mm 0.00 in0.0 mm
04:06 AM 27.7°F-2.4°C 24.9°F-3.9°C 85% 1.6 mph S2.6 kmh S 2.2 mph3.5 kmh 29.26 in990.9 mb 0.00 in0.0 mm 0.00 in0.0 mm 0.00 in0.0 mm
04:11 AM 27.7°F-2.4°C 24.9°F-3.9°C 85% 2.2 mph E3.5 kmh E 3.1 mph5.0 kmh 29.26 in990.9 mb 0.00 in0.0 mm 0.00 in0.0 mm 0.00 in0.0 mm
04:16 AM 27.7°F-2.4°C 24.9°F-3.9°C 85% Calm Calm 0.7 mph1.1 kmh 29.26 in990.9 mb 0.00 in0.0 mm 0.00 in0.0 mm 0.00 in0.0 mm
04:21 AM 27.7°F-2.4°C 24.9°F-3.9°C 85% 3.1 mph SE5.0 kmh SE 5.4 mph8.7 kmh 29.26 in990.9 mb 0.00 in0.0 mm 0.00 in0.0 mm 0.00 in0.0 mm
04:26 AM 27.7°F-2.4°C 24.9°F-3.9°C 85% 0.7 mph NE1.1 kmh NE 2.2 mph3.5 kmh 29.26 in990.9 mb 0.00 in0.0 mm 0.00 in0.0 mm 0.00 in0.0 mm
04:31 AM 27.5°F-2.5°C 24.7°F-4.1°C 85% 3.1 mph E5.0 kmh E 6.0 mph9.7 kmh 29.26 in990.9 mb 0.00 in0.0 mm 0.00 in0.0 mm 0.00 in0.0 mm
04:36 AM 27.5°F-2.5°C 24.7°F-4.1°C 85% 1.6 mph E2.6 kmh E 3.1 mph5.0 kmh 29.26 in990.9 mb 0.00 in0.0 mm 0.00 in0.0 mm 0.00 in0.0 mm
04:41 AM 27.5°F-2.5°C 24.7°F-4.1°C 85% Calm Calm 2.2 mph3.5 kmh 29.26 in990.9 mb 0.00 in0.0 mm 0.00 in0.0 mm 0.00 in0.0 mm
04:46 AM 27.5°F-2.5°C 24.7°F-4.1°C 85% 0.7 mph 1.1 kmh 2.2 mph3.5 kmh 29.26 in990.9 mb 0.00 in0.0 mm 0.00 in0.0 mm 0.00 in0.0 mm
04:51 AM 27.3°F-2.6°C 24.6°F-4.1°C 85% 0.7 mph S1.1 kmh S 1.6 mph2.6 kmh 29.26 in990.9 mb 0.00 in0.0 mm 0.00 in0.0 mm 0.00 in0.0 mm
04:56 AM 27.3°F-2.6°C 24.6°F-4.1°C 85% Calm Calm 1.6 mph2.6 kmh 29.25 in990.5 mb 0.00 in0.0 mm 0.00 in0.0 mm 0.00 in0.0 mm
05:01 AM 27.3°F-2.6°C 24.6°F-4.1°C 85% 0.7 mph SE1.1 kmh SE 2.2 mph3.5 kmh 29.26 in990.9 mb 0.00 in0.0 mm 0.00 in0.0 mm 0.00 in0.0 mm
05:06 AM 27.3°F-2.6°C 24.6°F-4.1°C 85% 0.7 mph E1.1 kmh E 1.6 mph2.6 kmh 29.26 in990.9 mb 0.00 in0.0 mm 0.00 in0.0 mm 0.00 in0.0 mm
05:11 AM 27.3°F-2.6°C 24.6°F-4.1°C 85% 1.6 mph NE2.6 kmh NE 3.8 mph6.1 kmh 29.26 in990.9 mb 0.00 in0.0 mm 0.00 in0.0 mm 0.00 in0.0 mm
05:16 AM 27.3°F-2.6°C 24.6°F-4.1°C 85% 0.7 mph E1.1 kmh E 3.1 mph5.0 kmh 29.26 in990.9 mb 0.00 in0.0 mm 0.00 in0.0 mm 0.00 in0.0 mm
05:21 AM 27.3°F-2.6°C 24.6°F-4.1°C 85% 0.7 mph E1.1 kmh E 1.6 mph2.6 kmh 29.26 in990.9 mb 0.00 in0.0 mm 0.00 in0.0 mm 0.00 in0.0 mm
05:26 AM 27.3°F-2.6°C 24.6°F-4.1°C 85% 2.2 mph 3.5 kmh 3.8 mph6.1 kmh 29.26 in990.9 mb 0.00 in0.0 mm 0.00 in0.0 mm 0.00 in0.0 mm
05:31 AM 27.1°F-2.7°C 24.4°F-4.2°C 85% 1.6 mph NE2.6 kmh NE 2.2 mph3.5 kmh 29.26 in990.9 mb 0.00 in0.0 mm 0.00 in0.0 mm 0.00 in0.0 mm
05:36 AM 27.1°F-2.7°C 24.4°F-4.2°C 85% 1.6 mph NE2.6 kmh NE 3.1 mph5.0 kmh 29.26 in990.9 mb 0.00 in0.0 mm 0.00 in0.0 mm 0.00 in0.0 mm
05:41 AM 27.1°F-2.7°C 24.4°F-4.2°C 85% 1.6 mph 2.6 kmh 3.8 mph6.1 kmh 29.26 in990.9 mb 0.00 in0.0 mm 0.00 in0.0 mm 0.00 in0.0 mm
05:46 AM 27.1°F-2.7°C 24.4°F-4.2°C 85% 0.7 mph 1.1 kmh 1.6 mph2.6 kmh 29.25 in990.5 mb 0.00 in0.0 mm 0.00 in0.0 mm 0.00 in0.0 mm
05:47 AM 27.1°F-2.7°C 24.2°F-4.3°C 84% 1.6 mph NE2.6 kmh NE 3.1 mph5.0 kmh 29.26 in990.9 mb 0.00 in0.0 mm 0.00 in0.0 mm 0.00 in0.0 mm
05:51 AM 27.1°F-2.7°C 24.2°F-4.3°C 84% 1.6 mph NE2.6 kmh NE 3.8 mph6.1 kmh 29.26 in990.9 mb 0.00 in0.0 mm 0.00 in0.0 mm 0.00 in0.0 mm
05:52 AM 27.1°F-2.7°C 24.2°F-4.3°C 84% 3.1 mph 5.0 kmh 4.5 mph7.2 kmh 29.26 in990.9 mb 0.00 in0.0 mm 0.00 in0.0 mm 0.00 in0.0 mm
05:56 AM 27.0°F-2.8°C 24.0°F-4.4°C 84% 2.2 mph 3.5 kmh 3.1 mph5.0 kmh 29.26 in990.9 mb 0.00 in0.0 mm 0.00 in0.0 mm 0.00 in0.0 mm
06:01 AM 27.0°F-2.8°C 24.0°F-4.4°C 84% 2.2 mph NE3.5 kmh NE 3.8 mph6.1 kmh 29.26 in990.9 mb 0.00 in0.0 mm 0.00 in0.0 mm 0.00 in0.0 mm
06:06 AM 27.0°F-2.8°C 24.0°F-4.4°C 84% Calm Calm 0.7 mph1.1 kmh 29.26 in990.9 mb 0.00 in0.0 mm 0.00 in0.0 mm 0.00 in0.0 mm
06:11 AM 27.0°F-2.8°C 24.0°F-4.4°C 84% Calm Calm 1.6 mph2.6 kmh 29.26 in990.9 mb 0.00 in0.0 mm 0.00 in0.0 mm 0.00 in0.0 mm
06:16 AM 27.0°F-2.8°C 24.0°F-4.4°C 84% 1.6 mph E2.6 kmh E 2.2 mph3.5 kmh 29.26 in990.9 mb 0.00 in0.0 mm 0.00 in0.0 mm 0.00 in0.0 mm
06:21 AM 27.0°F-2.8°C 24.0°F-4.4°C 84% 1.6 mph SE2.6 kmh SE 3.1 mph5.0 kmh 29.26 in990.9 mb 0.00 in0.0 mm 0.00 in0.0 mm 0.00 in0.0 mm
06:26 AM 26.8°F-2.9°C 23.8°F-4.6°C 84% 0.7 mph E1.1 kmh E 2.2 mph3.5 kmh 29.26 in990.9 mb 0.00 in0.0 mm 0.00 in0.0 mm 0.00 in0.0 mm
06:27 AM 26.8°F-2.9°C 23.8°F-4.6°C 84% Calm Calm 0.7 mph1.1 kmh 29.27 in991.2 mb 0.00 in0.0 mm 0.00 in0.0 mm 0.00 in0.0 mm
06:31 AM 26.8°F-2.9°C 23.8°F-4.6°C 84% 1.6 mph 2.6 kmh 3.1 mph5.0 kmh 29.27 in991.2 mb 0.00 in0.0 mm 0.00 in0.0 mm 0.00 in0.0 mm
06:32 AM 26.8°F-2.9°C 23.8°F-4.6°C 84% 0.7 mph NE1.1 kmh NE 2.2 mph3.5 kmh 29.28 in991.5 mb 0.00 in0.0 mm 0.00 in0.0 mm 0.00 in0.0 mm
06:36 AM 26.8°F-2.9°C 23.8°F-4.6°C 84% 2.2 mph 3.5 kmh 3.8 mph6.1 kmh 29.27 in991.2 mb 0.00 in0.0 mm 0.00 in0.0 mm 0.00 in0.0 mm
06:41 AM 26.6°F-3.0°C 23.7°F-4.6°C 84% 2.2 mph NNE3.5 kmh NNE 3.8 mph6.1 kmh 29.27 in991.2 mb 0.00 in0.0 mm 0.00 in0.0 mm 0.00 in0.0 mm
06:46 AM 26.6°F-3.0°C 23.7°F-4.6°C 84% 1.6 mph 2.6 kmh 2.2 mph3.5 kmh 29.27 in991.2 mb 0.00 in0.0 mm 0.00 in0.0 mm 0.00 in0.0 mm
06:51 AM 26.6°F-3.0°C 23.7°F-4.6°C 84% 3.1 mph 5.0 kmh 3.8 mph6.1 kmh 29.27 in991.2 mb 0.00 in0.0 mm 0.00 in0.0 mm 0.00 in0.0 mm
06:56 AM 26.6°F-3.0°C 23.7°F-4.6°C 84% Calm Calm 1.6 mph2.6 kmh 29.27 in991.2 mb 0.00 in0.0 mm 0.00 in0.0 mm 0.00 in0.0 mm
07:01 AM 26.6°F-3.0°C 23.7°F-4.6°C 84% 0.7 mph NE1.1 kmh NE 1.6 mph2.6 kmh 29.27 in991.2 mb 0.00 in0.0 mm 0.00 in0.0 mm 0.00 in0.0 mm
07:06 AM 26.6°F-3.0°C 23.7°F-4.6°C 84% 2.2 mph 3.5 kmh 3.8 mph6.1 kmh 29.27 in991.2 mb 0.00 in0.0 mm 0.00 in0.0 mm 0.00 in0.0 mm
07:07 AM 26.4°F-3.1°C 23.7°F-4.6°C 85% 3.8 mph NE6.1 kmh NE 5.4 mph8.7 kmh 29.27 in991.2 mb 0.00 in0.0 mm 0.00 in0.0 mm 0.00 in0.0 mm
07:10 AM 26.4°F-3.1°C 23.7°F-4.6°C 85% 1.6 mph NE2.6 kmh NE 3.1 mph5.0 kmh 29.27 in991.2 mb 0.00 in0.0 mm 0.00 in0.0 mm 0.00 in0.0 mm
07:11 AM 26.4°F-3.1°C 23.7°F-4.6°C 85% 1.6 mph NE2.6 kmh NE 3.1 mph5.0 kmh 29.27 in991.2 mb 0.00 in0.0 mm 0.00 in0.0 mm 0.00 in0.0 mm
07:12 AM 26.4°F-3.1°C 23.7°F-4.6°C 85% 2.2 mph NE3.5 kmh NE 3.8 mph6.1 kmh 29.27 in991.2 mb 0.00 in0.0 mm 0.00 in0.0 mm 0.00 in0.0 mm
07:16 AM 26.4°F-3.1°C 23.7°F-4.6°C 85% 1.6 mph 2.6 kmh 3.1 mph5.0 kmh 29.27 in991.2 mb 0.00 in0.0 mm 0.00 in0.0 mm 0.00 in0.0 mm
07:21 AM 26.4°F-3.1°C 23.7°F-4.6°C 85% 3.8 mph NE6.1 kmh NE 5.4 mph8.7 kmh 29.27 in991.2 mb 0.00 in0.0 mm 0.00 in0.0 mm 0.00 in0.0 mm
07:26 AM 26.2°F-3.2°C 23.5°F-4.7°C 85% 3.8 mph NNE6.1 kmh NNE 6.0 mph9.7 kmh 29.27 in991.2 mb 0.00 in0.0 mm 0.00 in0.0 mm 0.00 in0.0 mm
07:31 AM 26.2°F-3.2°C 23.5°F-4.7°C 85% 3.8 mph E6.1 kmh E 4.5 mph7.2 kmh 29.27 in991.2 mb 0.00 in0.0 mm 0.00 in0.0 mm 0.00 in0.0 mm
07:36 AM 26.2°F-3.2°C 23.5°F-4.7°C 85% 3.1 mph E5.0 kmh E 5.4 mph8.7 kmh 29.27 in991.2 mb 0.00 in0.0 mm 0.00 in0.0 mm 0.00 in0.0 mm
07:41 AM 26.1°F-3.3°C 23.3°F-4.8°C 85% 1.6 mph 2.6 kmh 4.5 mph7.2 kmh 29.28 in991.5 mb 0.00 in0.0 mm 0.00 in0.0 mm 0.00 in0.0 mm
07:46 AM 26.1°F-3.3°C 23.3°F-4.8°C 85% 3.1 mph NE5.0 kmh NE 6.0 mph9.7 kmh 29.27 in991.2 mb 0.00 in0.0 mm 0.00 in0.0 mm 0.00 in0.0 mm
07:47 AM 26.1°F-3.3°C 23.3°F-4.8°C 85% 3.8 mph 6.1 kmh 6.9 mph11.1 kmh 29.27 in991.2 mb 0.00 in0.0 mm 0.00 in0.0 mm 0.00 in0.0 mm
07:51 AM 26.1°F-3.3°C 23.3°F-4.8°C 85% 0.7 mph E1.1 kmh E 2.2 mph3.5 kmh 29.28 in991.5 mb 0.00 in0.0 mm 0.00 in0.0 mm 0.00 in0.0 mm
07:52 AM 26.1°F-3.3°C 23.3°F-4.8°C 85% 0.7 mph NE1.1 kmh NE 2.2 mph3.5 kmh 29.28 in991.5 mb 0.00 in0.0 mm 0.00 in0.0 mm 0.00 in0.0 mm
07:56 AM 26.1°F-3.3°C 23.3°F-4.8°C 85% 0.7 mph 1.1 kmh 2.2 mph3.5 kmh 29.28 in991.5 mb 0.00 in0.0 mm 0.00 in0.0 mm 0.00 in0.0 mm
08:01 AM 26.1°F-3.3°C 23.3°F-4.8°C 85% 1.6 mph E2.6 kmh E 3.8 mph6.1 kmh 29.28 in991.5 mb 0.00 in0.0 mm 0.00 in0.0 mm 0.00 in0.0 mm
08:06 AM 25.9°F-3.4°C 23.2°F-4.9°C 85% 3.8 mph NE6.1 kmh NE 5.4 mph8.7 kmh 29.28 in991.5 mb 0.00 in0.0 mm 0.00 in0.0 mm 0.00 in0.0 mm
08:11 AM 25.7°F-3.5°C 23.0°F-5.0°C 85% 3.1 mph 5.0 kmh 5.4 mph8.7 kmh 29.28 in991.5 mb 0.00 in0.0 mm 0.00 in0.0 mm 0.00 in0.0 mm
08:16 AM 25.7°F-3.5°C 23.0°F-5.0°C 85% 1.6 mph 2.6 kmh 3.1 mph5.0 kmh 29.28 in991.5 mb 0.00 in0.0 mm 0.00 in0.0 mm 0.00 in0.0 mm
08:21 AM 25.7°F-3.5°C 23.0°F-5.0°C 85% 1.6 mph E2.6 kmh E 3.1 mph5.0 kmh 29.29 in991.9 mb 0.00 in0.0 mm 0.00 in0.0 mm 0.00 in0.0 mm
08:26 AM 25.7°F-3.5°C 23.0°F-5.0°C 85% 3.8 mph NE6.1 kmh NE 5.4 mph8.7 kmh 29.29 in991.9 mb 0.00 in0.0 mm 0.00 in0.0 mm 0.00 in0.0 mm
08:31 AM 25.5°F-3.6°C 22.8°F-5.1°C 85% 2.2 mph NE3.5 kmh NE 3.8 mph6.1 kmh 29.28 in991.5 mb 0.00 in0.0 mm 0.00 in0.0 mm 0.00 in0.0 mm
08:36 AM 25.5°F-3.6°C 22.8°F-5.1°C 85% 1.6 mph NE2.6 kmh NE 3.1 mph5.0 kmh 29.29 in991.9 mb 0.00 in0.0 mm 0.00 in0.0 mm 0.00 in0.0 mm
08:41 AM 25.5°F-3.6°C 22.8°F-5.1°C 85% 3.8 mph E6.1 kmh E 5.4 mph8.7 kmh 29.29 in991.9 mb 0.00 in0.0 mm 0.00 in0.0 mm 0.00 in0.0 mm
08:46 AM 25.3°F-3.7°C 22.4°F-5.3°C 84% Calm Calm 0.7 mph1.1 kmh 29.29 in991.9 mb 0.00 in0.0 mm 0.00 in0.0 mm 0.00 in0.0 mm
08:51 AM 25.5°F-3.6°C 22.6°F-5.2°C 84% 3.1 mph SE5.0 kmh SE 3.8 mph6.1 kmh 29.29 in991.9 mb 0.00 in0.0 mm 0.00 in0.0 mm 0.00 in0.0 mm
08:56 AM 25.5°F-3.6°C 22.6°F-5.2°C 84% 0.7 mph 1.1 kmh 1.6 mph2.6 kmh 29.29 in991.9 mb 0.00 in0.0 mm 0.00 in0.0 mm 0.00 in0.0 mm
09:01 AM 25.5°F-3.6°C 22.6°F-5.2°C 84% 0.7 mph NW1.1 kmh NW 2.2 mph3.5 kmh 29.29 in991.9 mb 0.00 in0.0 mm 0.00 in0.0 mm 0.00 in0.0 mm
09:06 AM 25.5°F-3.6°C 22.6°F-5.2°C 84% 0.7 mph SE1.1 kmh SE 1.6 mph2.6 kmh 29.29 in991.9 mb 0.00 in0.0 mm 0.00 in0.0 mm 0.00 in0.0 mm
09:07 AM 25.5°F-3.6°C 22.6°F-5.2°C 84% 2.2 mph 3.5 kmh 3.1 mph5.0 kmh 29.29 in991.9 mb 0.00 in0.0 mm 0.00 in0.0 mm 0.00 in0.0 mm
09:11 AM 25.5°F-3.6°C 22.6°F-5.2°C 84% 0.7 mph E1.1 kmh E 2.2 mph3.5 kmh 29.29 in991.9 mb 0.00 in0.0 mm 0.00 in0.0 mm 0.00 in0.0 mm
09:12 AM 25.5°F-3.6°C 22.6°F-5.2°C 84% 0.7 mph E1.1 kmh E 2.2 mph3.5 kmh 29.28 in991.5 mb 0.00 in0.0 mm 0.00 in0.0 mm 0.00 in0.0 mm
09:16 AM 25.5°F-3.6°C 22.6°F-5.2°C 84% 0.7 mph NE1.1 kmh NE 1.6 mph2.6 kmh 29.29 in991.9 mb 0.00 in0.0 mm 0.00 in0.0 mm 0.00 in0.0 mm
09:21 AM 25.3°F-3.7°C 22.4°F-5.3°C 84% 0.7 mph S1.1 kmh S 1.6 mph2.6 kmh 29.29 in991.9 mb 0.00 in0.0 mm 0.00 in0.0 mm 0.00 in0.0 mm
09:26 AM 25.3°F-3.7°C 22.4°F-5.3°C 84% 0.7 mph 1.1 kmh 2.2 mph3.5 kmh 29.29 in991.9 mb 0.00 in0.0 mm 0.00 in0.0 mm 0.00 in0.0 mm
09:31 AM 25.3°F-3.7°C 22.4°F-5.3°C 84% 3.8 mph NE6.1 kmh NE 6.0 mph9.7 kmh 29.29 in991.9 mb 0.00 in0.0 mm 0.00 in0.0 mm 0.00 in0.0 mm
09:36 AM 25.3°F-3.7°C 22.4°F-5.3°C 84% 1.6 mph NE2.6 kmh NE 3.1 mph5.0 kmh 29.29 in991.9 mb 0.00 in0.0 mm 0.00 in0.0 mm 0.00 in0.0 mm
09:41 AM 25.2°F-3.8°C 22.3°F-5.4°C 84% 2.2 mph NE3.5 kmh NE 3.8 mph6.1 kmh 29.29 in991.9 mb 0.00 in0.0 mm 0.00 in0.0 mm 0.00 in0.0 mm
09:46 AM 25.3°F-3.7°C 22.4°F-5.3°C 84% 0.7 mph NE1.1 kmh NE 2.2 mph3.5 kmh 29.29 in991.9 mb 0.00 in0.0 mm 0.00 in0.0 mm 0.00 in0.0 mm
09:47 AM 25.3°F-3.7°C 22.4°F-5.3°C 84% 0.7 mph NE1.1 kmh NE 3.1 mph5.0 kmh 29.29 in991.9 mb 0.00 in0.0 mm 0.00 in0.0 mm 0.00 in0.0 mm
09:51 AM 25.3°F-3.7°C 22.4°F-5.3°C 84% 2.2 mph NE3.5 kmh NE 3.1 mph5.0 kmh 29.29 in991.9 mb 0.00 in0.0 mm 0.00 in0.0 mm 0.00 in0.0 mm
09:52 AM 25.3°F-3.7°C 22.4°F-5.3°C 84% 0.7 mph NE1.1 kmh NE 2.2 mph3.5 kmh 29.29 in991.9 mb 0.00 in0.0 mm 0.00 in0.0 mm 0.00 in0.0 mm
09:56 AM 25.3°F-3.7°C 22.4°F-5.3°C 84% 0.7 mph E1.1 kmh E 2.2 mph3.5 kmh 29.29 in991.9 mb 0.00 in0.0 mm 0.00 in0.0 mm 0.00 in0.0 mm
10:01 AM 25.3°F-3.7°C 22.4°F-5.3°C 84% 1.6 mph NE2.6 kmh NE 3.1 mph5.0 kmh 29.29 in991.9 mb 0.00 in0.0 mm 0.00 in0.0 mm 0.00 in0.0 mm
10:06 AM 25.3°F-3.7°C 22.4°F-5.3°C 84% 2.2 mph E3.5 kmh E 3.8 mph6.1 kmh 29.29 in991.9 mb 0.00 in0.0 mm 0.00 in0.0 mm 0.00 in0.0 mm
10:11 AM 25.3°F-3.7°C 22.4°F-5.3°C 84% 0.7 mph E1.1 kmh E 3.1 mph5.0 kmh 29.29 in991.9 mb 0.00 in0.0 mm 0.00 in0.0 mm 0.00 in0.0 mm
10:16 AM 25.3°F-3.7°C 22.4°F-5.3°C 84% 2.2 mph E3.5 kmh E 3.8 mph6.1 kmh 29.29 in991.9 mb 0.00 in0.0 mm 0.00 in0.0 mm 0.00 in0.0 mm
10:21 AM 25.5°F-3.6°C 22.6°F-5.2°C 84% 2.2 mph NE3.5 kmh NE 3.8 mph6.1 kmh 29.29 in991.9 mb 0.00 in0.0 mm 0.00 in0.0 mm 0.00 in0.0 mm
10:26 AM 25.5°F-3.6°C 22.6°F-5.2°C 84% 3.8 mph 6.1 kmh 6.0 mph9.7 kmh 29.30 in992.2 mb 0.00 in0.0 mm 0.00 in0.0 mm 0.00 in0.0 mm
10:31 AM 25.5°F-3.6°C 22.6°F-5.2°C 84% 2.2 mph E3.5 kmh E 3.1 mph5.0 kmh 29.30 in992.2 mb 0.00 in0.0 mm 0.00 in0.0 mm 0.00 in0.0 mm
10:36 AM 25.3°F-3.7°C 22.4°F-5.3°C 84% 3.1 mph 5.0 kmh 4.5 mph7.2 kmh 29.29 in991.9 mb 0.00 in0.0 mm 0.00 in0.0 mm 0.00 in0.0 mm
10:41 AM 25.3°F-3.7°C 22.4°F-5.3°C 84% 2.2 mph NE3.5 kmh NE 3.8 mph6.1 kmh 29.29 in991.9 mb 0.00 in0.0 mm 0.00 in0.0 mm 0.00 in0.0 mm
10:46 AM 25.3°F-3.7°C 22.4°F-5.3°C 84% 3.1 mph 5.0 kmh 3.8 mph6.1 kmh 29.29 in991.9 mb 0.00 in0.0 mm 0.00 in0.0 mm 0.00 in0.0 mm
10:47 AM 25.3°F-3.7°C 22.4°F-5.3°C 84% 4.5 mph 7.2 kmh 6.0 mph9.7 kmh 29.30 in992.2 mb 0.00 in0.0 mm 0.00 in0.0 mm 0.00 in0.0 mm
10:51 AM 25.3°F-3.7°C 22.4°F-5.3°C 84% 3.1 mph SE5.0 kmh SE 3.8 mph6.1 kmh 29.30 in992.2 mb 0.00 in0.0 mm 0.00 in0.0 mm 0.00 in0.0 mm
10:52 AM 25.3°F-3.7°C 22.4°F-5.3°C 84% 2.2 mph SE3.5 kmh SE 4.5 mph7.2 kmh 29.30 in992.2 mb 0.00 in0.0 mm 0.00 in0.0 mm 0.00 in0.0 mm
10:56 AM 25.3°F-3.7°C 22.4°F-5.3°C 84% 3.1 mph 5.0 kmh 4.5 mph7.2 kmh 29.30 in992.2 mb 0.00 in0.0 mm 0.00 in0.0 mm 0.00 in0.0 mm
11:01 AM 25.3°F-3.7°C 22.4°F-5.3°C 84% 2.2 mph 3.5 kmh 4.5 mph7.2 kmh 29.30 in992.2 mb 0.00 in0.0 mm 0.00 in0.0 mm 0.00 in0.0 mm
11:06 AM 25.3°F-3.7°C 22.4°F-5.3°C 84% 2.2 mph E3.5 kmh E 3.1 mph5.0 kmh 29.30 in992.2 mb 0.00 in0.0 mm 0.00 in0.0 mm 0.00 in0.0 mm
11:11 AM 25.3°F-3.7°C 22.4°F-5.3°C 84% 2.2 mph NE3.5 kmh NE 4.5 mph7.2 kmh 29.30 in992.2 mb 0.00 in0.0 mm 0.00 in0.0 mm 0.00 in0.0 mm
11:16 AM 25.5°F-3.6°C 22.6°F-5.2°C 84% 0.7 mph NE1.1 kmh NE 2.2 mph3.5 kmh 29.30 in992.2 mb 0.00 in0.0 mm 0.00 in0.0 mm 0.00 in0.0 mm
11:21 AM 25.5°F-3.6°C 22.6°F-5.2°C 84% 2.2 mph NE3.5 kmh NE 3.8 mph6.1 kmh 29.31 in992.6 mb 0.00 in0.0 mm 0.00 in0.0 mm 0.00 in0.0 mm
11:26 AM 25.7°F-3.5°C 22.8°F-5.1°C 84% 0.7 mph NW1.1 kmh NW 2.2 mph3.5 kmh 29.30 in992.2 mb 0.00 in0.0 mm 0.00 in0.0 mm 0.00 in0.0 mm
11:27 AM 25.5°F-3.6°C 22.6°F-5.2°C 84% Calm Calm 1.6 mph2.6 kmh 29.31 in992.6 mb 0.00 in0.0 mm 0.00 in0.0 mm 0.00 in0.0 mm
11:31 AM 25.5°F-3.6°C 22.6°F-5.2°C 84% 3.8 mph NE6.1 kmh NE 6.0 mph9.7 kmh 29.30 in992.2 mb 0.00 in0.0 mm 0.00 in0.0 mm 0.00 in0.0 mm
11:32 AM 25.5°F-3.6°C 22.6°F-5.2°C 84% 3.8 mph NE6.1 kmh NE 5.4 mph8.7 kmh 29.30 in992.2 mb 0.00 in0.0 mm 0.00 in0.0 mm 0.00 in0.0 mm
11:36 AM 25.5°F-3.6°C 22.4°F-5.3°C 83% 4.5 mph NE7.2 kmh NE 6.0 mph9.7 kmh 29.31 in992.6 mb 0.00 in0.0 mm 0.00 in0.0 mm 0.00 in0.0 mm
11:41 AM 25.3°F-3.7°C 22.2°F-5.4°C 83% 3.1 mph E5.0 kmh E 5.4 mph8.7 kmh 29.31 in992.6 mb 0.00 in0.0 mm 0.00 in0.0 mm 0.00 in0.0 mm
11:46 AM 25.3°F-3.7°C 22.2°F-5.4°C 83% 1.6 mph NE2.6 kmh NE 3.1 mph5.0 kmh 29.30 in992.2 mb 0.00 in0.0 mm 0.00 in0.0 mm 0.00 in0.0 mm
11:47 AM 25.3°F-3.7°C 22.2°F-5.4°C 83% 1.6 mph E2.6 kmh E 3.8 mph6.1 kmh 29.31 in992.6 mb 0.00 in0.0 mm 0.00 in0.0 mm 0.00 in0.0 mm
11:51 AM 25.5°F-3.6°C 22.4°F-5.3°C 83% 3.1 mph NE5.0 kmh NE 6.0 mph9.7 kmh 29.31 in992.6 mb 0.00 in0.0 mm 0.00 in0.0 mm 0.00 in0.0 mm
11:52 AM 25.5°F-3.6°C 22.4°F-5.3°C 83% 3.1 mph E5.0 kmh E 4.5 mph7.2 kmh 29.31 in992.6 mb 0.00 in0.0 mm 0.00 in0.0 mm 0.00 in0.0 mm
11:56 AM 25.3°F-3.7°C 22.2°F-5.4°C 83% Calm Calm 0.7 mph1.1 kmh 29.31 in992.6 mb 0.00 in0.0 mm 0.00 in0.0 mm 0.00 in0.0 mm
12:01 PM 25.5°F-3.6°C 22.4°F-5.3°C 83% 2.2 mph NE3.5 kmh NE 3.8 mph6.1 kmh 29.31 in992.6 mb 0.00 in0.0 mm 0.00 in0.0 mm 0.00 in0.0 mm
12:06 PM 25.5°F-3.6°C 22.4°F-5.3°C 83% 2.2 mph E3.5 kmh E 3.8 mph6.1 kmh 29.31 in992.6 mb 0.00 in0.0 mm 0.00 in0.0 mm 0.00 in0.0 mm
12:07 PM 25.5°F-3.6°C 22.4°F-5.3°C 83% 1.6 mph NNE2.6 kmh NNE 2.2 mph3.5 kmh 29.31 in992.6 mb 0.00 in0.0 mm 0.00 in0.0 mm 0.00 in0.0 mm
12:11 PM 25.5°F-3.6°C 22.4°F-5.3°C 83% 1.6 mph E2.6 kmh E 2.2 mph3.5 kmh 29.31 in992.6 mb 0.00 in0.0 mm 0.00 in0.0 mm 0.00 in0.0 mm
12:12 PM 25.5°F-3.6°C 22.4°F-5.3°C 83% 0.7 mph NE1.1 kmh NE 3.1 mph5.0 kmh 29.31 in992.6 mb 0.00 in0.0 mm 0.00 in0.0 mm 0.00 in0.0 mm
12:16 PM 25.5°F-3.6°C 22.4°F-5.3°C 83% 2.2 mph NNW3.5 kmh NNW 3.8 mph6.1 kmh 29.31 in992.6 mb 0.00 in0.0 mm 0.00 in0.0 mm 0.00 in0.0 mm
12:21 PM 25.3°F-3.7°C 22.2°F-5.4°C 83% 1.6 mph E2.6 kmh E 3.1 mph5.0 kmh 29.31 in992.6 mb 0.00 in0.0 mm 0.00 in0.0 mm 0.00 in0.0 mm
12:26 PM 25.2°F-3.8°C 22.1°F-5.5°C 83% 3.8 mph NE6.1 kmh NE 5.4 mph8.7 kmh 29.31 in992.6 mb 0.00 in0.0 mm 0.00 in0.0 mm 0.00 in0.0 mm
12:27 PM 25.2°F-3.8°C 22.1°F-5.5°C 83% 3.1 mph N5.0 kmh N 4.5 mph7.2 kmh 29.31 in992.6 mb 0.00 in0.0 mm 0.00 in0.0 mm 0.00 in0.0 mm
12:31 PM 25.0°F-3.9°C 21.9°F-5.6°C 83% 1.6 mph NE2.6 kmh NE 3.8 mph6.1 kmh 29.31 in992.6 mb 0.00 in0.0 mm 0.00 in0.0 mm 0.00 in0.0 mm
12:32 PM 25.0°F-3.9°C 21.9°F-5.6°C 83% 1.6 mph E2.6 kmh E 3.1 mph5.0 kmh 29.30 in992.2 mb 0.00 in0.0 mm 0.00 in0.0 mm 0.00 in0.0 mm
12:36 PM 25.0°F-3.9°C 21.9°F-5.6°C 83% 2.2 mph 3.5 kmh 4.5 mph7.2 kmh 29.31 in992.6 mb 0.00 in0.0 mm 0.00 in0.0 mm 0.00 in0.0 mm
12:41 PM 25.0°F-3.9°C 21.9°F-5.6°C 83% 2.2 mph NE3.5 kmh NE 3.8 mph6.1 kmh 29.31 in992.6 mb 0.00 in0.0 mm 0.00 in0.0 mm 0.00 in0.0 mm
12:46 PM 25.0°F-3.9°C 21.9°F-5.6°C 83% 2.2 mph NE3.5 kmh NE 4.5 mph7.2 kmh 29.31 in992.6 mb 0.00 in0.0 mm 0.00 in0.0 mm 0.00 in0.0 mm
12:47 PM 25.2°F-3.8°C 22.1°F-5.5°C 83% 2.2 mph SE3.5 kmh SE 3.8 mph6.1 kmh 29.31 in992.6 mb 0.00 in0.0 mm 0.00 in0.0 mm 0.00 in0.0 mm
12:51 PM 25.2°F-3.8°C 22.1°F-5.5°C 83% 0.7 mph S1.1 kmh S 2.2 mph3.5 kmh 29.31 in992.6 mb 0.00 in0.0 mm 0.00 in0.0 mm 0.00 in0.0 mm
12:52 PM 25.2°F-3.8°C 22.1°F-5.5°C 83% 2.2 mph NE3.5 kmh NE 3.1 mph5.0 kmh 29.31 in992.6 mb 0.00 in0.0 mm 0.00 in0.0 mm 0.00 in0.0 mm
12:56 PM 25.3°F-3.7°C 22.2°F-5.4°C 83% 1.6 mph NE2.6 kmh NE 2.2 mph3.5 kmh 29.31 in992.6 mb 0.00 in0.0 mm 0.00 in0.0 mm 0.00 in0.0 mm
01:01 PM 25.3°F-3.7°C 22.2°F-5.4°C 83% 2.2 mph E3.5 kmh E 3.8 mph6.1 kmh 29.31 in992.6 mb 0.00 in0.0 mm 0.00 in0.0 mm 0.00 in0.0 mm
01:06 PM 25.2°F-3.8°C 22.1°F-5.5°C 83% 4.5 mph NNW7.2 kmh NNW 6.0 mph9.7 kmh 29.31 in992.6 mb 0.00 in0.0 mm 0.00 in0.0 mm 0.00 in0.0 mm
01:07 PM 25.2°F-3.8°C 22.1°F-5.5°C 83% 3.8 mph NNE6.1 kmh NNE 6.0 mph9.7 kmh 29.31 in992.6 mb 0.00 in0.0 mm 0.00 in0.0 mm 0.00 in0.0 mm
01:11 PM 25.2°F-3.8°C 22.1°F-5.5°C 83% 3.8 mph NE6.1 kmh NE 5.4 mph8.7 kmh 29.31 in992.6 mb 0.00 in0.0 mm 0.00 in0.0 mm 0.00 in0.0 mm
01:12 PM 25.2°F-3.8°C 22.1°F-5.5°C 83% 2.2 mph NE3.5 kmh NE 3.1 mph5.0 kmh 29.31 in992.6 mb 0.00 in0.0 mm 0.00 in0.0 mm 0.00 in0.0 mm
01:16 PM 25.0°F-3.9°C 21.9°F-5.6°C 83% 0.7 mph NE1.1 kmh NE 2.2 mph3.5 kmh 29.31 in992.6 mb 0.00 in0.0 mm 0.00 in0.0 mm 0.00 in0.0 mm
01:21 PM 25.2°F-3.8°C 22.1°F-5.5°C 83% 2.2 mph NE3.5 kmh NE 3.1 mph5.0 kmh 29.31 in992.6 mb 0.00 in0.0 mm 0.00 in0.0 mm 0.00 in0.0 mm
01:26 PM 25.2°F-3.8°C 22.1°F-5.5°C 83% 0.7 mph NE1.1 kmh NE 3.1 mph5.0 kmh 29.31 in992.6 mb 0.00 in0.0 mm 0.00 in0.0 mm 0.00 in0.0 mm
01:27 PM 25.2°F-3.8°C 22.1°F-5.5°C 83% 3.1 mph 5.0 kmh 5.4 mph8.7 kmh 29.31 in992.6 mb 0.00 in0.0 mm 0.00 in0.0 mm 0.00 in0.0 mm
01:31 PM 25.0°F-3.9°C 21.9°F-5.6°C 83% 1.6 mph 2.6 kmh 3.1 mph5.0 kmh 29.30 in992.2 mb 0.00 in0.0 mm 0.00 in0.0 mm 0.00 in0.0 mm
01:32 PM 25.0°F-3.9°C 21.9°F-5.6°C 83% 1.6 mph 2.6 kmh 3.1 mph5.0 kmh 29.31 in992.6 mb 0.00 in0.0 mm 0.00 in0.0 mm 0.00 in0.0 mm
01:36 PM 25.2°F-3.8°C 22.1°F-5.5°C 83% 1.6 mph NE2.6 kmh NE 3.1 mph5.0 kmh 29.31 in992.6 mb 0.00 in0.0 mm 0.00 in0.0 mm 0.00 in0.0 mm
01:41 PM 25.2°F-3.8°C 22.1°F-5.5°C 83% Calm Calm 1.6 mph2.6 kmh 29.30 in992.2 mb 0.00 in0.0 mm 0.00 in0.0 mm 0.00 in0.0 mm
01:46 PM 25.2°F-3.8°C 22.1°F-5.5°C 83% 0.7 mph E1.1 kmh E 1.6 mph2.6 kmh 29.30 in992.2 mb 0.00 in0.0 mm 0.00 in0.0 mm 0.00 in0.0 mm
01:47 PM 25.2°F-3.8°C 22.1°F-5.5°C 83% 0.7 mph NE1.1 kmh NE 3.1 mph5.0 kmh 29.30 in992.2 mb 0.00 in0.0 mm 0.00 in0.0 mm 0.00 in0.0 mm
01:51 PM 25.2°F-3.8°C 22.1°F-5.5°C 83% 2.2 mph NE3.5 kmh NE 3.1 mph5.0 kmh 29.29 in991.9 mb 0.00 in0.0 mm 0.00 in0.0 mm 0.00 in0.0 mm
01:52 PM 25.3°F-3.7°C 22.2°F-5.4°C 83% 2.2 mph NNE3.5 kmh NNE 3.8 mph6.1 kmh 29.30 in992.2 mb 0.00 in0.0 mm 0.00 in0.0 mm 0.00 in0.0 mm
01:56 PM 25.2°F-3.8°C 22.1°F-5.5°C 83% 0.7 mph NE1.1 kmh NE 2.2 mph3.5 kmh 29.30 in992.2 mb 0.00 in0.0 mm 0.00 in0.0 mm 0.00 in0.0 mm
02:01 PM 25.3°F-3.7°C 22.2°F-5.4°C 83% 1.6 mph E2.6 kmh E 2.2 mph3.5 kmh 29.29 in991.9 mb 0.00 in0.0 mm 0.00 in0.0 mm 0.00 in0.0 mm
02:06 PM 25.3°F-3.7°C 22.2°F-5.4°C 83% Calm Calm 1.6 mph2.6 kmh 29.30 in992.2 mb 0.00 in0.0 mm 0.00 in0.0 mm 0.00 in0.0 mm
02:07 PM 25.3°F-3.7°C 22.2°F-5.4°C 83% 0.7 mph SE1.1 kmh SE 2.2 mph3.5 kmh 29.29 in991.9 mb 0.00 in0.0 mm 0.00 in0.0 mm 0.00 in0.0 mm
02:11 PM 25.3°F-3.7°C 22.2°F-5.4°C 83% 1.6 mph 2.6 kmh 3.1 mph5.0 kmh 29.30 in992.2 mb 0.00 in0.0 mm 0.00 in0.0 mm 0.00 in0.0 mm
02:12 PM 25.3°F-3.7°C 22.2°F-5.4°C 83% 0.7 mph 1.1 kmh 3.1 mph5.0 kmh 29.29 in991.9 mb 0.00 in0.0 mm 0.00 in0.0 mm 0.00 in0.0 mm
02:16 PM 25.3°F-3.7°C 22.2°F-5.4°C 83% 1.6 mph SE2.6 kmh SE 3.1 mph5.0 kmh 29.30 in992.2 mb 0.00 in0.0 mm 0.00 in0.0 mm 0.00 in0.0 mm
02:21 PM 25.3°F-3.7°C 22.2°F-5.4°C 83% 3.1 mph NE5.0 kmh NE 4.5 mph7.2 kmh 29.30 in992.2 mb 0.00 in0.0 mm 0.00 in0.0 mm 0.00 in0.0 mm
02:26 PM 25.2°F-3.8°C 21.9°F-5.6°C 82% 2.2 mph NE3.5 kmh NE 3.8 mph6.1 kmh 29.30 in992.2 mb 0.00 in0.0 mm 0.00 in0.0 mm 0.00 in0.0 mm
02:27 PM 25.2°F-3.8°C 21.9°F-5.6°C 82% 3.1 mph NE5.0 kmh NE 5.4 mph8.7 kmh 29.30 in992.2 mb 0.00 in0.0 mm 0.00 in0.0 mm 0.00 in0.0 mm
02:31 PM 25.0°F-3.9°C 21.7°F-5.7°C 82% 1.6 mph NE2.6 kmh NE 2.2 mph3.5 kmh 29.30 in992.2 mb 0.00 in0.0 mm 0.00 in0.0 mm 0.00 in0.0 mm
02:32 PM 25.0°F-3.9°C 21.7°F-5.7°C 82% 0.7 mph 1.1 kmh 2.2 mph3.5 kmh 29.30 in992.2 mb 0.00 in0.0 mm 0.00 in0.0 mm 0.00 in0.0 mm
02:36 PM 25.2°F-3.8°C 21.9°F-5.6°C 82% 3.1 mph NE5.0 kmh NE 4.5 mph7.2 kmh 29.31 in992.6 mb 0.00 in0.0 mm 0.00 in0.0 mm 0.00 in0.0 mm
02:41 PM 25.0°F-3.9°C 21.7°F-5.7°C 82% 2.2 mph 3.5 kmh 3.8 mph6.1 kmh 29.30 in992.2 mb 0.00 in0.0 mm 0.00 in0.0 mm 0.00 in0.0 mm
02:46 PM 25.2°F-3.8°C 21.9°F-5.6°C 82% 2.2 mph E3.5 kmh E 3.8 mph6.1 kmh 29.30 in992.2 mb 0.00 in0.0 mm 0.00 in0.0 mm 0.00 in0.0 mm
02:47 PM 25.2°F-3.8°C 21.9°F-5.6°C 82% 1.6 mph E2.6 kmh E 3.1 mph5.0 kmh 29.31 in992.6 mb 0.00 in0.0 mm 0.00 in0.0 mm 0.00 in0.0 mm
02:51 PM 25.0°F-3.9°C 21.7°F-5.7°C 82% 0.7 mph E1.1 kmh E 2.2 mph3.5 kmh 29.30 in992.2 mb 0.00 in0.0 mm 0.00 in0.0 mm 0.00 in0.0 mm
02:52 PM 25.0°F-3.9°C 21.7°F-5.7°C 82% Calm Calm 1.6 mph2.6 kmh 29.31 in992.6 mb 0.00 in0.0 mm 0.00 in0.0 mm 0.00 in0.0 mm
02:56 PM 25.2°F-3.8°C 21.9°F-5.6°C 82% 0.7 mph 1.1 kmh 1.6 mph2.6 kmh 29.31 in992.6 mb 0.00 in0.0 mm 0.00 in0.0 mm 0.00 in0.0 mm
03:01 PM 25.2°F-3.8°C 21.9°F-5.6°C 82% 1.6 mph NE2.6 kmh NE 2.2 mph3.5 kmh 29.31 in992.6 mb 0.00 in0.0 mm 0.00 in0.0 mm 0.00 in0.0 mm
03:06 PM 25.0°F-3.9°C 21.7°F-5.7°C 82% 1.6 mph 2.6 kmh 3.1 mph5.0 kmh 29.30 in992.2 mb 0.00 in0.0 mm 0.00 in0.0 mm 0.00 in0.0 mm
03:07 PM 25.0°F-3.9°C 21.7°F-5.7°C 82% 2.2 mph 3.5 kmh 3.1 mph5.0 kmh 29.30 in992.2 mb 0.00 in0.0 mm 0.00 in0.0 mm 0.00 in0.0 mm
03:11 PM 25.0°F-3.9°C 21.7°F-5.7°C 82% 1.6 mph NE2.6 kmh NE 3.1 mph5.0 kmh 29.30 in992.2 mb 0.00 in0.0 mm 0.00 in0.0 mm 0.00 in0.0 mm
03:12 PM 25.0°F-3.9°C 21.7°F-5.7°C 82% 1.6 mph NE2.6 kmh NE 3.1 mph5.0 kmh 29.30 in992.2 mb 0.00 in0.0 mm 0.00 in0.0 mm 0.00 in0.0 mm
03:16 PM 25.2°F-3.8°C 21.9°F-5.6°C 82% 0.7 mph 1.1 kmh 3.1 mph5.0 kmh 29.30 in992.2 mb 0.00 in0.0 mm 0.00 in0.0 mm 0.00 in0.0 mm
03:21 PM 25.2°F-3.8°C 21.9°F-5.6°C 82% 3.1 mph SW5.0 kmh SW 3.8 mph6.1 kmh 29.31 in992.6 mb 0.00 in0.0 mm 0.00 in0.0 mm 0.00 in0.0 mm
03:26 PM 25.2°F-3.8°C 21.9°F-5.6°C 82% 2.2 mph NE3.5 kmh NE 3.8 mph6.1 kmh 29.31 in992.6 mb 0.00 in0.0 mm 0.00 in0.0 mm 0.00 in0.0 mm
03:27 PM 25.2°F-3.8°C 21.9°F-5.6°C 82% 2.2 mph NNW3.5 kmh NNW 3.1 mph5.0 kmh 29.31 in992.6 mb 0.00 in0.0 mm 0.00 in0.0 mm 0.00 in0.0 mm
03:31 PM 25.0°F-3.9°C 21.7°F-5.7°C 82% 2.2 mph 3.5 kmh 3.8 mph6.1 kmh 29.31 in992.6 mb 0.00 in0.0 mm 0.00 in0.0 mm 0.00 in0.0 mm
03:32 PM 25.0°F-3.9°C 21.7°F-5.7°C 82% 2.2 mph E3.5 kmh E 3.1 mph5.0 kmh 29.31 in992.6 mb 0.00 in0.0 mm 0.00 in0.0 mm 0.00 in0.0 mm
03:36 PM 25.0°F-3.9°C 21.7°F-5.7°C 82% 2.2 mph NE3.5 kmh NE 3.8 mph6.1 kmh 29.31 in992.6 mb 0.00 in0.0 mm 0.00 in0.0 mm 0.00 in0.0 mm
03:41 PM 25.0°F-3.9°C 21.7°F-5.7°C 82% 1.6 mph NE2.6 kmh NE 3.8 mph6.1 kmh 29.31 in992.6 mb 0.00 in0.0 mm 0.00 in0.0 mm 0.00 in0.0 mm
03:46 PM 24.8°F-4.0°C 21.5°F-5.8°C 82% 1.6 mph 2.6 kmh 3.1 mph5.0 kmh 29.30 in992.2 mb 0.00 in0.0 mm 0.00 in0.0 mm 0.00 in0.0 mm
03:47 PM 24.8°F-4.0°C 21.5°F-5.8°C 82% 2.2 mph 3.5 kmh 3.1 mph5.0 kmh 29.30 in992.2 mb 0.00 in0.0 mm 0.00 in0.0 mm 0.00 in0.0 mm
03:51 PM 24.8°F-4.0°C 21.5°F-5.8°C 82% 2.2 mph S3.5 kmh S 4.5 mph7.2 kmh 29.30 in992.2 mb 0.00 in0.0 mm 0.00 in0.0 mm 0.00 in0.0 mm
03:52 PM 24.8°F-4.0°C 21.5°F-5.8°C 82% 0.7 mph S1.1 kmh S 1.6 mph2.6 kmh 29.31 in992.6 mb 0.00 in0.0 mm 0.00 in0.0 mm 0.00 in0.0 mm
03:56 PM 24.8°F-4.0°C 21.5°F-5.8°C 82% 2.2 mph SE3.5 kmh SE 3.8 mph6.1 kmh 29.31 in992.6 mb 0.00 in0.0 mm 0.00 in0.0 mm 0.00 in0.0 mm
04:01 PM 24.6°F-4.1°C 21.5°F-5.8°C 83% 2.2 mph NE3.5 kmh NE 3.8 mph6.1 kmh 29.31 in992.6 mb 0.00 in0.0 mm 0.00 in0.0 mm 0.00 in0.0 mm
04:06 PM 24.6°F-4.1°C 21.5°F-5.8°C 83% 3.8 mph NE6.1 kmh NE 5.4 mph8.7 kmh 29.31 in992.6 mb 0.00 in0.0 mm 0.00 in0.0 mm 0.00 in0.0 mm
04:07 PM 24.6°F-4.1°C 21.5°F-5.8°C 83% 1.6 mph NE2.6 kmh NE 2.2 mph3.5 kmh 29.30 in992.2 mb 0.00 in0.0 mm 0.00 in0.0 mm 0.00 in0.0 mm
04:11 PM 24.6°F-4.1°C 21.5°F-5.8°C 83% 1.6 mph NE2.6 kmh NE 3.1 mph5.0 kmh 29.31 in992.6 mb 0.00 in0.0 mm 0.00 in0.0 mm 0.00 in0.0 mm
04:12 PM 24.6°F-4.1°C 21.5°F-5.8°C 83% 1.6 mph NE2.6 kmh NE 3.1 mph5.0 kmh 29.31 in992.6 mb 0.00 in0.0 mm 0.00 in0.0 mm 0.00 in0.0 mm
04:16 PM 24.6°F-4.1°C 21.5°F-5.8°C 83% 1.6 mph E2.6 kmh E 3.1 mph5.0 kmh 29.31 in992.6 mb 0.00 in0.0 mm 0.00 in0.0 mm 0.00 in0.0 mm
04:21 PM 24.6°F-4.1°C 21.5°F-5.8°C 83% 3.1 mph NE5.0 kmh NE 4.5 mph7.2 kmh 29.30 in992.2 mb 0.00 in0.0 mm 0.00 in0.0 mm 0.00 in0.0 mm
04:26 PM 24.4°F-4.2°C 21.4°F-5.9°C 83% 3.1 mph NE5.0 kmh NE 4.5 mph7.2 kmh 29.31 in992.6 mb 0.00 in0.0 mm 0.00 in0.0 mm 0.00 in0.0 mm
04:27 PM 24.4°F-4.2°C 21.4°F-5.9°C 83% 2.2 mph E3.5 kmh E 3.8 mph6.1 kmh 29.31 in992.6 mb 0.00 in0.0 mm 0.00 in0.0 mm 0.00 in0.0 mm
04:31 PM 24.4°F-4.2°C 21.4°F-5.9°C 83% 0.7 mph NE1.1 kmh NE 2.2 mph3.5 kmh 29.31 in992.6 mb 0.00 in0.0 mm 0.00 in0.0 mm 0.00 in0.0 mm
04:32 PM 24.4°F-4.2°C 21.4°F-5.9°C 83% 0.7 mph 1.1 kmh 1.6 mph2.6 kmh 29.31 in992.6 mb 0.00 in0.0 mm 0.00 in0.0 mm 0.00 in0.0 mm
04:36 PM 24.4°F-4.2°C 21.4°F-5.9°C 83% 1.6 mph NE2.6 kmh NE 3.1 mph5.0 kmh 29.31 in992.6 mb 0.00 in0.0 mm 0.00 in0.0 mm 0.00 in0.0 mm
04:41 PM 24.4°F-4.2°C 21.4°F-5.9°C 83% 2.2 mph NE3.5 kmh NE 3.1 mph5.0 kmh 29.31 in992.6 mb 0.00 in0.0 mm 0.00 in0.0 mm 0.00 in0.0 mm
04:46 PM 24.4°F-4.2°C 21.4°F-5.9°C 83% 1.6 mph E2.6 kmh E 2.2 mph3.5 kmh 29.31 in992.6 mb 0.00 in0.0 mm 0.00 in0.0 mm 0.00 in0.0 mm
04:47 PM 24.4°F-4.2°C 21.4°F-5.9°C 83% 2.2 mph NE3.5 kmh NE 3.8 mph6.1 kmh 29.31 in992.6 mb 0.00 in0.0 mm 0.00 in0.0 mm 0.00 in0.0 mm
04:51 PM 24.4°F-4.2°C 21.4°F-5.9°C 83% 3.1 mph NE5.0 kmh NE 5.4 mph8.7 kmh 29.31 in992.6 mb 0.00 in0.0 mm 0.00 in0.0 mm 0.00 in0.0 mm
04:52 PM 24.4°F-4.2°C 21.4°F-5.9°C 83% 4.5 mph NE7.2 kmh NE 6.0 mph9.7 kmh 29.31 in992.6 mb 0.00 in0.0 mm 0.00 in0.0 mm 0.00 in0.0 mm
04:56 PM 24.3°F-4.3°C 21.2°F-6.0°C 83% 2.2 mph NE3.5 kmh NE 3.1 mph5.0 kmh 29.31 in992.6 mb 0.00 in0.0 mm 0.00 in0.0 mm 0.00 in0.0 mm
05:01 PM 24.3°F-4.3°C 21.2°F-6.0°C 83% 3.8 mph NE6.1 kmh NE 5.4 mph8.7 kmh 29.32 in992.9 mb 0.00 in0.0 mm 0.00 in0.0 mm 0.00 in0.0 mm
05:06 PM 24.3°F-4.3°C 21.2°F-6.0°C 83% 3.1 mph NE5.0 kmh NE 4.5 mph7.2 kmh 29.32 in992.9 mb 0.00 in0.0 mm 0.00 in0.0 mm 0.00 in0.0 mm
05:07 PM 24.3°F-4.3°C 21.2°F-6.0°C 83% 3.8 mph NE6.1 kmh NE 5.4 mph8.7 kmh 29.32 in992.9 mb 0.00 in0.0 mm 0.00 in0.0 mm 0.00 in0.0 mm
05:11 PM 24.3°F-4.3°C 21.2°F-6.0°C 83% 2.2 mph NE3.5 kmh NE 3.1 mph5.0 kmh 29.31 in992.6 mb 0.00 in0.0 mm 0.00 in0.0 mm 0.00 in0.0 mm
05:12 PM 24.3°F-4.3°C 21.2°F-6.0°C 83% 1.6 mph 2.6 kmh 3.1 mph5.0 kmh 29.31 in992.6 mb 0.00 in0.0 mm 0.00 in0.0 mm 0.00 in0.0 mm
05:16 PM 24.3°F-4.3°C 21.2°F-6.0°C 83% 1.6 mph E2.6 kmh E 3.1 mph5.0 kmh 29.31 in992.6 mb 0.00 in0.0 mm 0.00 in0.0 mm 0.00 in0.0 mm
05:21 PM 24.3°F-4.3°C 21.2°F-6.0°C 83% Calm Calm 1.6 mph2.6 kmh 29.32 in992.9 mb 0.00 in0.0 mm 0.00 in0.0 mm 0.00 in0.0 mm
05:26 PM 24.3°F-4.3°C 21.2°F-6.0°C 83% 3.1 mph E5.0 kmh E 3.8 mph6.1 kmh 29.31 in992.6 mb 0.00 in0.0 mm 0.00 in0.0 mm 0.00 in0.0 mm
05:27 PM 24.3°F-4.3°C 21.2°F-6.0°C 83% 2.2 mph SE3.5 kmh SE 4.5 mph7.2 kmh 29.31 in992.6 mb 0.00 in0.0 mm 0.00 in0.0 mm 0.00 in0.0 mm
05:31 PM 24.3°F-4.3°C 21.2°F-6.0°C 83% 3.1 mph 5.0 kmh 6.0 mph9.7 kmh 29.31 in992.6 mb 0.00 in0.0 mm 0.00 in0.0 mm 0.00 in0.0 mm
05:32 PM 24.3°F-4.3°C 21.2°F-6.0°C 83% 3.1 mph NE5.0 kmh NE 3.8 mph6.1 kmh 29.31 in992.6 mb 0.00 in0.0 mm 0.00 in0.0 mm 0.00 in0.0 mm
05:36 PM 24.1°F-4.4°C 21.0°F-6.1°C 83% 2.2 mph NE3.5 kmh NE 3.1 mph5.0 kmh 29.31 in992.6 mb 0.00 in0.0 mm 0.00 in0.0 mm 0.00 in0.0 mm
05:41 PM 24.1°F-4.4°C 21.0°F-6.1°C 83% 1.6 mph NE2.6 kmh NE 3.1 mph5.0 kmh 29.32 in992.9 mb 0.00 in0.0 mm 0.00 in0.0 mm 0.00 in0.0 mm
05:46 PM 24.1°F-4.4°C 21.0°F-6.1°C 83% 2.2 mph NE3.5 kmh NE 4.5 mph7.2 kmh 29.31 in992.6 mb 0.00 in0.0 mm 0.00 in0.0 mm 0.00 in0.0 mm
05:47 PM 24.1°F-4.4°C 21.0°F-6.1°C 83% 2.2 mph 3.5 kmh 4.5 mph7.2 kmh 29.31 in992.6 mb 0.00 in0.0 mm 0.00 in0.0 mm 0.00 in0.0 mm
05:51 PM 24.1°F-4.4°C 21.0°F-6.1°C 83% Calm Calm 0.7 mph1.1 kmh 29.31 in992.6 mb 0.00 in0.0 mm 0.00 in0.0 mm 0.00 in0.0 mm
05:52 PM 24.1°F-4.4°C 21.0°F-6.1°C 83% 1.6 mph 2.6 kmh 2.2 mph3.5 kmh 29.31 in992.6 mb 0.00 in0.0 mm 0.00 in0.0 mm 0.00 in0.0 mm
05:56 PM 24.1°F-4.4°C 21.0°F-6.1°C 83% Calm Calm 1.6 mph2.6 kmh 29.31 in992.6 mb 0.00 in0.0 mm 0.00 in0.0 mm 0.00 in0.0 mm
06:01 PM 24.1°F-4.4°C 21.0°F-6.1°C 83% Calm Calm 1.6 mph2.6 kmh 29.31 in992.6 mb 0.00 in0.0 mm 0.00 in0.0 mm 0.00 in0.0 mm
06:06 PM 24.1°F-4.4°C 21.0°F-6.1°C 83% 3.8 mph 6.1 kmh 5.4 mph8.7 kmh 29.31 in992.6 mb 0.00 in0.0 mm 0.00 in0.0 mm 0.00 in0.0 mm
06:07 PM 24.1°F-4.4°C 21.0°F-6.1°C 83% 0.7 mph NE1.1 kmh NE 3.1 mph5.0 kmh 29.31 in992.6 mb 0.00 in0.0 mm 0.00 in0.0 mm 0.00 in0.0 mm
06:11 PM 24.1°F-4.4°C 21.0°F-6.1°C 83% 1.6 mph NE2.6 kmh NE 2.2 mph3.5 kmh 29.31 in992.6 mb 0.00 in0.0 mm 0.00 in0.0 mm 0.00 in0.0 mm
06:12 PM 24.1°F-4.4°C 21.0°F-6.1°C 83% 0.7 mph NE1.1 kmh NE 2.2 mph3.5 kmh 29.31 in992.6 mb 0.00 in0.0 mm 0.00 in0.0 mm 0.00 in0.0 mm
06:16 PM 24.1°F-4.4°C 21.0°F-6.1°C 83% 1.6 mph SE2.6 kmh SE 3.1 mph5.0 kmh 29.31 in992.6 mb 0.00 in0.0 mm 0.00 in0.0 mm 0.00 in0.0 mm
06:21 PM 24.1°F-4.4°C 21.0°F-6.1°C 83% 2.2 mph 3.5 kmh 3.8 mph6.1 kmh 29.32 in992.9 mb 0.00 in0.0 mm 0.00 in0.0 mm 0.00 in0.0 mm
06:26 PM 23.9°F-4.5°C 20.8°F-6.2°C 83% 3.1 mph 5.0 kmh 3.8 mph6.1 kmh 29.31 in992.6 mb 0.00 in0.0 mm 0.00 in0.0 mm 0.00 in0.0 mm
06:27 PM 23.9°F-4.5°C 20.8°F-6.2°C 83% 2.2 mph E3.5 kmh E 3.1 mph5.0 kmh 29.31 in992.6 mb 0.00 in0.0 mm 0.00 in0.0 mm 0.00 in0.0 mm
06:31 PM 23.9°F-4.5°C 20.8°F-6.2°C 83% 1.6 mph NE2.6 kmh NE 3.8 mph6.1 kmh 29.31 in992.6 mb 0.00 in0.0 mm 0.00 in0.0 mm 0.00 in0.0 mm
06:32 PM 23.9°F-4.5°C 20.8°F-6.2°C 83% 3.8 mph NE6.1 kmh NE 5.4 mph8.7 kmh 29.31 in992.6 mb 0.00 in0.0 mm 0.00 in0.0 mm 0.00 in0.0 mm
06:36 PM 23.9°F-4.5°C 20.8°F-6.2°C 83% 1.6 mph NW2.6 kmh NW 3.1 mph5.0 kmh 29.31 in992.6 mb 0.00 in0.0 mm 0.00 in0.0 mm 0.00 in0.0 mm
06:41 PM 23.9°F-4.5°C 20.8°F-6.2°C 83% 6.0 mph NNW9.7 kmh NNW 8.3 mph13.4 kmh 29.31 in992.6 mb 0.00 in0.0 mm 0.00 in0.0 mm 0.00 in0.0 mm
06:46 PM 23.9°F-4.5°C 20.8°F-6.2°C 83% 3.1 mph E5.0 kmh E 3.8 mph6.1 kmh 29.31 in992.6 mb 0.00 in0.0 mm 0.00 in0.0 mm 0.00 in0.0 mm
06:47 PM 23.9°F-4.5°C 20.8°F-6.2°C 83% 2.2 mph NE3.5 kmh NE 4.5 mph7.2 kmh 29.31 in992.6 mb 0.00 in0.0 mm 0.00 in0.0 mm 0.00 in0.0 mm
06:51 PM 23.9°F-4.5°C 20.8°F-6.2°C 83% 1.6 mph NE2.6 kmh NE 3.1 mph5.0 kmh 29.31 in992.6 mb 0.00 in0.0 mm 0.00 in0.0 mm 0.00 in0.0 mm
06:52 PM 23.9°F-4.5°C 20.8°F-6.2°C 83% 2.2 mph 3.5 kmh 3.8 mph6.1 kmh 29.32 in992.9 mb 0.00 in0.0 mm 0.00 in0.0 mm 0.00 in0.0 mm
06:56 PM 23.9°F-4.5°C 20.8°F-6.2°C 83% 3.1 mph NE5.0 kmh NE 4.5 mph7.2 kmh 29.31 in992.6 mb 0.00 in0.0 mm 0.00 in0.0 mm 0.00 in0.0 mm
07:01 PM 23.7°F-4.6°C 20.7°F-6.3°C 83% 2.2 mph 3.5 kmh 3.8 mph6.1 kmh 29.32 in992.9 mb 0.00 in0.0 mm 0.00 in0.0 mm 0.00 in0.0 mm
07:06 PM 23.7°F-4.6°C 20.7°F-6.3°C 83% 1.6 mph NE2.6 kmh NE 3.1 mph5.0 kmh 29.32 in992.9 mb 0.00 in0.0 mm 0.00 in0.0 mm 0.00 in0.0 mm
07:07 PM 23.7°F-4.6°C 20.7°F-6.3°C 83% 0.7 mph E1.1 kmh E 3.1 mph5.0 kmh 29.32 in992.9 mb 0.00 in0.0 mm 0.00 in0.0 mm 0.00 in0.0 mm
07:11 PM 23.7°F-4.6°C 20.7°F-6.3°C 83% 1.6 mph 2.6 kmh 3.8 mph6.1 kmh 29.32 in992.9 mb 0.00 in0.0 mm 0.00 in0.0 mm 0.00 in0.0 mm
07:12 PM 23.7°F-4.6°C 20.7°F-6.3°C 83% 1.6 mph SE2.6 kmh SE 3.1 mph5.0 kmh 29.32 in992.9 mb 0.00 in0.0 mm 0.00 in0.0 mm 0.00 in0.0 mm
07:16 PM 23.7°F-4.6°C 20.7°F-6.3°C 83% 1.6 mph NE2.6 kmh NE 2.2 mph3.5 kmh 29.32 in992.9 mb 0.00 in0.0 mm 0.00 in0.0 mm 0.00 in0.0 mm
07:21 PM 23.7°F-4.6°C 20.7°F-6.3°C 83% 0.7 mph S1.1 kmh S 2.2 mph3.5 kmh 29.32 in992.9 mb 0.00 in0.0 mm 0.00 in0.0 mm 0.00 in0.0 mm
07:26 PM 23.7°F-4.6°C 20.7°F-6.3°C 83% 3.1 mph E5.0 kmh E 5.4 mph8.7 kmh 29.32 in992.9 mb 0.00 in0.0 mm 0.00 in0.0 mm 0.00 in0.0 mm
07:27 PM 23.7°F-4.6°C 20.7°F-6.3°C 83% 2.2 mph E3.5 kmh E 4.5 mph7.2 kmh 29.32 in992.9 mb 0.00 in0.0 mm 0.00 in0.0 mm 0.00 in0.0 mm
07:31 PM 23.5°F-4.7°C 20.5°F-6.4°C 83% 1.6 mph NE2.6 kmh NE 3.8 mph6.1 kmh 29.32 in992.9 mb 0.00 in0.0 mm 0.00 in0.0 mm 0.00 in0.0 mm
07:32 PM 23.5°F-4.7°C 20.5°F-6.4°C 83% 2.2 mph 3.5 kmh 3.8 mph6.1 kmh 29.32 in992.9 mb 0.00 in0.0 mm 0.00 in0.0 mm 0.00 in0.0 mm
07:36 PM 23.5°F-4.7°C 20.5°F-6.4°C 83% 2.2 mph NE3.5 kmh NE 3.8 mph6.1 kmh 29.32 in992.9 mb 0.00 in0.0 mm 0.00 in0.0 mm 0.00 in0.0 mm
07:41 PM 23.5°F-4.7°C 20.5°F-6.4°C 83% 2.2 mph 3.5 kmh 4.5 mph7.2 kmh 29.32 in992.9 mb 0.00 in0.0 mm 0.00 in0.0 mm 0.00 in0.0 mm
07:46 PM 23.5°F-4.7°C 20.5°F-6.4°C 83% 1.6 mph 2.6 kmh 3.1 mph5.0 kmh 29.32 in992.9 mb 0.00 in0.0 mm 0.00 in0.0 mm 0.00 in0.0 mm
07:47 PM 23.5°F-4.7°C 20.5°F-6.4°C 83% 2.2 mph E3.5 kmh E 3.8 mph6.1 kmh 29.32 in992.9 mb 0.00 in0.0 mm 0.00 in0.0 mm 0.00 in0.0 mm
07:51 PM 23.5°F-4.7°C 20.5°F-6.4°C 83% 1.6 mph NNE2.6 kmh NNE 2.2 mph3.5 kmh 29.32 in992.9 mb 0.00 in0.0 mm 0.00 in0.0 mm 0.00 in0.0 mm
07:52 PM 23.5°F-4.7°C 20.5°F-6.4°C 83% 2.2 mph SE3.5 kmh SE 3.1 mph5.0 kmh 29.32 in992.9 mb 0.00 in0.0 mm 0.00 in0.0 mm 0.00 in0.0 mm
07:56 PM 23.5°F-4.7°C 20.5°F-6.4°C 83% 2.2 mph S3.5 kmh S 3.8 mph6.1 kmh 29.32 in992.9 mb 0.00 in0.0 mm 0.00 in0.0 mm 0.00 in0.0 mm
08:01 PM 23.5°F-4.7°C 20.5°F-6.4°C 83% 3.1 mph NE5.0 kmh NE 3.8 mph6.1 kmh 29.32 in992.9 mb 0.00 in0.0 mm 0.00 in0.0 mm 0.00 in0.0 mm
08:06 PM 23.5°F-4.7°C 20.5°F-6.4°C 83% 1.6 mph E2.6 kmh E 3.1 mph5.0 kmh 29.31 in992.6 mb 0.00 in0.0 mm 0.00 in0.0 mm 0.00 in0.0 mm
08:07 PM 23.5°F-4.7°C 20.5°F-6.4°C 83% 2.2 mph E3.5 kmh E 3.8 mph6.1 kmh 29.32 in992.9 mb 0.00 in0.0 mm 0.00 in0.0 mm 0.00 in0.0 mm
08:11 PM 23.5°F-4.7°C 20.5°F-6.4°C 83% 1.6 mph SE2.6 kmh SE 3.8 mph6.1 kmh 29.31 in992.6 mb 0.00 in0.0 mm 0.00 in0.0 mm 0.00 in0.0 mm
08:12 PM 23.5°F-4.7°C 20.5°F-6.4°C 83% 0.7 mph 1.1 kmh 2.2 mph3.5 kmh 29.31 in992.6 mb 0.00 in0.0 mm 0.00 in0.0 mm 0.00 in0.0 mm
08:16 PM 23.5°F-4.7°C 20.5°F-6.4°C 83% 0.7 mph NE1.1 kmh NE 2.2 mph3.5 kmh 29.32 in992.9 mb 0.00 in0.0 mm 0.00 in0.0 mm 0.00 in0.0 mm
08:21 PM 23.5°F-4.7°C 20.5°F-6.4°C 83% 2.2 mph NE3.5 kmh NE 3.8 mph6.1 kmh 29.32 in992.9 mb 0.00 in0.0 mm 0.00 in0.0 mm 0.00 in0.0 mm
08:26 PM 23.5°F-4.7°C 20.5°F-6.4°C 83% 0.7 mph NE1.1 kmh NE 2.2 mph3.5 kmh 29.32 in992.9 mb 0.00 in0.0 mm 0.00 in0.0 mm 0.00 in0.0 mm
08:27 PM 23.5°F-4.7°C 20.5°F-6.4°C 83% Calm Calm 0.7 mph1.1 kmh 29.32 in992.9 mb 0.00 in0.0 mm 0.00 in0.0 mm 0.00 in0.0 mm
08:31 PM 23.5°F-4.7°C 20.5°F-6.4°C 83% Calm Calm -- 29.32 in992.9 mb 0.00 in0.0 mm 0.00 in0.0 mm 0.00 in0.0 mm
08:32 PM 23.5°F-4.7°C 20.5°F-6.4°C 83% Calm Calm 0.7 mph1.1 kmh 29.32 in992.9 mb 0.00 in0.0 mm 0.00 in0.0 mm 0.00 in0.0 mm
08:36 PM 23.5°F-4.7°C 20.5°F-6.4°C 83% 2.2 mph SE3.5 kmh SE 3.8 mph6.1 kmh 29.32 in992.9 mb 0.00 in0.0 mm 0.00 in0.0 mm 0.00 in0.0 mm
08:41 PM 23.5°F-4.7°C 20.5°F-6.4°C 83% 0.7 mph E1.1 kmh E 2.2 mph3.5 kmh 29.32 in992.9 mb 0.00 in0.0 mm 0.00 in0.0 mm 0.00 in0.0 mm
08:46 PM 23.5°F-4.7°C 20.5°F-6.4°C 83% 0.7 mph E1.1 kmh E 2.2 mph3.5 kmh 29.32 in992.9 mb 0.00 in0.0 mm 0.00 in0.0 mm 0.00 in0.0 mm
08:47 PM 23.5°F-4.7°C 20.5°F-6.4°C 83% 0.7 mph E1.1 kmh E 3.1 mph5.0 kmh 29.32 in992.9 mb 0.00 in0.0 mm 0.00 in0.0 mm 0.00 in0.0 mm
08:51 PM 23.5°F-4.7°C 20.5°F-6.4°C 83% 2.2 mph SE3.5 kmh SE 3.1 mph5.0 kmh 29.32 in992.9 mb 0.00 in0.0 mm 0.00 in0.0 mm 0.00 in0.0 mm
08:52 PM 23.5°F-4.7°C 20.5°F-6.4°C 83% 0.7 mph NE1.1 kmh NE 1.6 mph2.6 kmh 29.32 in992.9 mb 0.00 in0.0 mm 0.00 in0.0 mm 0.00 in0.0 mm
08:56 PM 23.5°F-4.7°C 20.5°F-6.4°C 83% 1.6 mph E2.6 kmh E 3.1 mph5.0 kmh 29.32 in992.9 mb 0.00 in0.0 mm 0.00 in0.0 mm 0.00 in0.0 mm
09:01 PM 23.5°F-4.7°C 20.5°F-6.4°C 83% 0.7 mph S1.1 kmh S 2.2 mph3.5 kmh 29.32 in992.9 mb 0.00 in0.0 mm 0.00 in0.0 mm 0.00 in0.0 mm
09:06 PM 23.5°F-4.7°C 20.5°F-6.4°C 83% 0.7 mph W1.1 kmh W 2.2 mph3.5 kmh 29.32 in992.9 mb 0.00 in0.0 mm 0.00 in0.0 mm 0.00 in0.0 mm
09:07 PM 23.5°F-4.7°C 20.5°F-6.4°C 83% 1.6 mph SE2.6 kmh SE 3.1 mph5.0 kmh 29.32 in992.9 mb 0.00 in0.0 mm 0.00 in0.0 mm 0.00 in0.0 mm
09:11 PM 23.5°F-4.7°C 20.5°F-6.4°C 83% 0.7 mph NE1.1 kmh NE 2.2 mph3.5 kmh 29.32 in992.9 mb 0.00 in0.0 mm 0.00 in0.0 mm 0.00 in0.0 mm
09:12 PM 23.5°F-4.7°C 20.5°F-6.4°C 83% 0.7 mph NE1.1 kmh NE 3.1 mph5.0 kmh 29.31 in992.6 mb 0.00 in0.0 mm 0.00 in0.0 mm 0.00 in0.0 mm
09:16 PM 23.4°F-4.8°C 20.3°F-6.5°C 83% 2.2 mph NE3.5 kmh NE 3.1 mph5.0 kmh 29.32 in992.9 mb 0.00 in0.0 mm 0.00 in0.0 mm 0.00 in0.0 mm
09:21 PM 23.5°F-4.7°C 20.5°F-6.4°C 83% 3.1 mph 5.0 kmh 4.5 mph7.2 kmh 29.32 in992.9 mb 0.00 in0.0 mm 0.00 in0.0 mm 0.00 in0.0 mm
09:26 PM 23.4°F-4.8°C 20.3°F-6.5°C 83% 2.2 mph NE3.5 kmh NE 3.1 mph5.0 kmh 29.32 in992.9 mb 0.00 in0.0 mm 0.00 in0.0 mm 0.00 in0.0 mm
09:27 PM 23.4°F-4.8°C 20.3°F-6.5°C 83% 0.7 mph E1.1 kmh E 3.1 mph5.0 kmh 29.32 in992.9 mb 0.00 in0.0 mm 0.00 in0.0 mm 0.00 in0.0 mm
09:31 PM 23.4°F-4.8°C 20.3°F-6.5°C 83% 0.7 mph E1.1 kmh E 1.6 mph2.6 kmh 29.33 in993.2 mb 0.00 in0.0 mm 0.00 in0.0 mm 0.00 in0.0 mm
09:32 PM 23.4°F-4.8°C 20.3°F-6.5°C 83% 1.6 mph E2.6 kmh E 2.2 mph3.5 kmh 29.32 in992.9 mb 0.00 in0.0 mm 0.00 in0.0 mm 0.00 in0.0 mm
09:36 PM 23.4°F-4.8°C 20.3°F-6.5°C 83% 0.7 mph E1.1 kmh E 2.2 mph3.5 kmh 29.33 in993.2 mb 0.00 in0.0 mm 0.00 in0.0 mm 0.00 in0.0 mm
09:41 PM 23.4°F-4.8°C 20.3°F-6.5°C 83% Calm Calm 1.6 mph2.6 kmh 29.33 in993.2 mb 0.00 in0.0 mm 0.00 in0.0 mm 0.00 in0.0 mm
09:46 PM 23.4°F-4.8°C 20.3°F-6.5°C 83% 1.6 mph NE2.6 kmh NE 3.1 mph5.0 kmh 29.33 in993.2 mb 0.00 in0.0 mm 0.00 in0.0 mm 0.00 in0.0 mm
09:47 PM 23.4°F-4.8°C 20.3°F-6.5°C 83% 0.7 mph E1.1 kmh E 2.2 mph3.5 kmh 29.33 in993.2 mb 0.00 in0.0 mm 0.00 in0.0 mm 0.00 in0.0 mm
09:51 PM 23.4°F-4.8°C 20.3°F-6.5°C 83% 1.6 mph SE2.6 kmh SE 2.2 mph3.5 kmh 29.33 in993.2 mb 0.00 in0.0 mm 0.00 in0.0 mm 0.00 in0.0 mm
09:52 PM 23.4°F-4.8°C 20.3°F-6.5°C 83% Calm Calm -- 29.33 in993.2 mb 0.00 in0.0 mm 0.00 in0.0 mm 0.00 in0.0 mm
09:56 PM 23.4°F-4.8°C 20.3°F-6.5°C 83% Calm Calm 1.6 mph2.6 kmh 29.33 in993.2 mb 0.00 in0.0 mm 0.00 in0.0 mm 0.00 in0.0 mm
10:01 PM 23.4°F-4.8°C 20.3°F-6.5°C 83% Calm Calm 0.7 mph1.1 kmh 29.32 in992.9 mb 0.00 in0.0 mm 0.00 in0.0 mm 0.00 in0.0 mm
10:06 PM 23.4°F-4.8°C 20.3°F-6.5°C 83% 1.6 mph E2.6 kmh E 3.1 mph5.0 kmh 29.32 in992.9 mb 0.00 in0.0 mm 0.00 in0.0 mm 0.00 in0.0 mm
10:07 PM 23.4°F-4.8°C 20.3°F-6.5°C 83% Calm Calm 0.7 mph1.1 kmh 29.32 in992.9 mb 0.00 in0.0 mm 0.00 in0.0 mm 0.00 in0.0 mm
10:11 PM 23.4°F-4.8°C 20.3°F-6.5°C 83% 1.6 mph NE2.6 kmh NE 3.1 mph5.0 kmh 29.32 in992.9 mb 0.00 in0.0 mm 0.00 in0.0 mm 0.00 in0.0 mm
10:12 PM 23.4°F-4.8°C 20.3°F-6.5°C 83% Calm Calm 0.7 mph1.1 kmh 29.33 in993.2 mb 0.00 in0.0 mm 0.00 in0.0 mm 0.00 in0.0 mm
10:16 PM 23.4°F-4.8°C 20.3°F-6.5°C 83% 0.7 mph S1.1 kmh S 2.2 mph3.5 kmh 29.32 in992.9 mb 0.00 in0.0 mm 0.00 in0.0 mm 0.00 in0.0 mm
10:21 PM 23.4°F-4.8°C 20.3°F-6.5°C 83% 3.1 mph NE5.0 kmh NE 3.8 mph6.1 kmh 29.32 in992.9 mb 0.00 in0.0 mm 0.00 in0.0 mm 0.00 in0.0 mm
10:26 PM 23.4°F-4.8°C 20.3°F-6.5°C 83% 3.1 mph NE5.0 kmh NE 4.5 mph7.2 kmh 29.33 in993.2 mb 0.00 in0.0 mm 0.00 in0.0 mm 0.00 in0.0 mm
10:27 PM 23.4°F-4.8°C 20.3°F-6.5°C 83% 1.6 mph SE2.6 kmh SE 3.1 mph5.0 kmh 29.33 in993.2 mb 0.00 in0.0 mm 0.00 in0.0 mm 0.00 in0.0 mm
10:31 PM 23.4°F-4.8°C 20.3°F-6.5°C 83% 2.2 mph SE3.5 kmh SE 3.8 mph6.1 kmh 29.32 in992.9 mb 0.00 in0.0 mm 0.00 in0.0 mm 0.00 in0.0 mm
10:32 PM 23.4°F-4.8°C 20.3°F-6.5°C 83% 1.6 mph SE2.6 kmh SE 2.2 mph3.5 kmh 29.33 in993.2 mb 0.00 in0.0 mm 0.00 in0.0 mm 0.00 in0.0 mm
10:36 PM 23.2°F-4.9°C 20.1°F-6.6°C 83% 1.6 mph 2.6 kmh 3.1 mph5.0 kmh 29.33 in993.2 mb 0.00 in0.0 mm 0.00 in0.0 mm 0.00 in0.0 mm
10:41 PM 23.2°F-4.9°C 20.1°F-6.6°C 83% Calm Calm 2.2 mph3.5 kmh 29.33 in993.2 mb 0.00 in0.0 mm 0.00 in0.0 mm 0.00 in0.0 mm
10:42 PM 23.2°F-4.9°C 20.1°F-6.6°C 83% Calm Calm 2.2 mph3.5 kmh 29.33 in993.2 mb 0.00 in0.0 mm 0.00 in0.0 mm 0.00 in0.0 mm
10:47 PM 23.2°F-4.9°C 20.1°F-6.6°C 83% 2.2 mph E3.5 kmh E 3.1 mph5.0 kmh 29.33 in993.2 mb 0.00 in0.0 mm 0.00 in0.0 mm 0.00 in0.0 mm
10:51 PM 23.0°F-5.0°C 20.0°F-6.7°C 83% 0.7 mph NE1.1 kmh NE 2.2 mph3.5 kmh 29.33 in993.2 mb 0.00 in0.0 mm 0.00 in0.0 mm 0.00 in0.0 mm
10:52 PM 23.2°F-4.9°C 20.1°F-6.6°C 83% 0.7 mph NE1.1 kmh NE 1.6 mph2.6 kmh 29.33 in993.2 mb 0.00 in0.0 mm 0.00 in0.0 mm 0.00 in0.0 mm
10:56 PM 23.0°F-5.0°C 20.0°F-6.7°C 83% Calm Calm 3.1 mph5.0 kmh 29.33 in993.2 mb 0.00 in0.0 mm 0.00 in0.0 mm 0.00 in0.0 mm
11:01 PM 23.0°F-5.0°C 20.0°F-6.7°C 83% Calm Calm 1.6 mph2.6 kmh 29.33 in993.2 mb 0.00 in0.0 mm 0.00 in0.0 mm 0.00 in0.0 mm
11:06 PM 23.0°F-5.0°C 20.0°F-6.7°C 83% Calm Calm 1.6 mph2.6 kmh 29.33 in993.2 mb 0.00 in0.0 mm 0.00 in0.0 mm 0.00 in0.0 mm
11:07 PM 23.0°F-5.0°C 20.0°F-6.7°C 83% 0.7 mph 1.1 kmh 1.6 mph2.6 kmh 29.33 in993.2 mb 0.00 in0.0 mm 0.00 in0.0 mm 0.00 in0.0 mm
11:11 PM 23.0°F-5.0°C 20.0°F-6.7°C 83% 2.2 mph NE3.5 kmh NE 3.8 mph6.1 kmh 29.33 in993.2 mb 0.00 in0.0 mm 0.00 in0.0 mm 0.00 in0.0 mm
11:12 PM 23.0°F-5.0°C 20.0°F-6.7°C 83% 0.7 mph E1.1 kmh E 2.2 mph3.5 kmh 29.33 in993.2 mb 0.00 in0.0 mm 0.00 in0.0 mm 0.00 in0.0 mm
11:16 PM 22.8°F-5.1°C 20.0°F-6.7°C 84% 0.7 mph NE1.1 kmh NE 2.2 mph3.5 kmh 29.33 in993.2 mb 0.00 in0.0 mm 0.00 in0.0 mm 0.00 in0.0 mm
11:21 PM 22.8°F-5.1°C 20.0°F-6.7°C 84% 2.2 mph NNE3.5 kmh NNE 3.8 mph6.1 kmh 29.33 in993.2 mb 0.00 in0.0 mm 0.00 in0.0 mm 0.00 in0.0 mm
11:26 PM 22.8°F-5.1°C 20.0°F-6.7°C 84% 1.6 mph NE2.6 kmh NE 2.2 mph3.5 kmh 29.33 in993.2 mb 0.00 in0.0 mm 0.00 in0.0 mm 0.00 in0.0 mm
11:27 PM 22.8°F-5.1°C 20.0°F-6.7°C 84% 0.7 mph E1.1 kmh E 1.6 mph2.6 kmh 29.33 in993.2 mb 0.00 in0.0 mm 0.00 in0.0 mm 0.00 in0.0 mm
11:31 PM 22.8°F-5.1°C 20.0°F-6.7°C 84% 0.7 mph SE1.1 kmh SE 3.1 mph5.0 kmh 29.33 in993.2 mb 0.00 in0.0 mm 0.00 in0.0 mm 0.00 in0.0 mm
11:32 PM 22.8°F-5.1°C 20.0°F-6.7°C 84% Calm Calm 2.2 mph3.5 kmh 29.33 in993.2 mb 0.00 in0.0 mm 0.00 in0.0 mm 0.00 in0.0 mm
11:36 PM 22.8°F-5.1°C 20.0°F-6.7°C 84% 0.7 mph NE1.1 kmh NE 1.6 mph2.6 kmh 29.34 in993.6 mb 0.00 in0.0 mm 0.00 in0.0 mm 0.00 in0.0 mm
11:41 PM 22.6°F-5.2°C 19.6°F-6.9°C 83% Calm Calm 1.6 mph2.6 kmh 29.33 in993.2 mb 0.00 in0.0 mm 0.00 in0.0 mm 0.00 in0.0 mm
11:46 PM 22.6°F-5.2°C 19.6°F-6.9°C 83% 0.7 mph SE1.1 kmh SE 2.2 mph3.5 kmh 29.33 in993.2 mb 0.00 in0.0 mm 0.00 in0.0 mm 0.00 in0.0 mm
11:47 PM 22.6°F-5.2°C 19.6°F-6.9°C 83% 0.7 mph 1.1 kmh 2.2 mph3.5 kmh 29.34 in993.6 mb 0.00 in0.0 mm 0.00 in0.0 mm 0.00 in0.0 mm
11:51 PM 22.6°F-5.2°C 19.6°F-6.9°C 83% Calm Calm 0.7 mph1.1 kmh 29.34 in993.6 mb 0.00 in0.0 mm 0.00 in0.0 mm 0.00 in0.0 mm
11:52 PM 22.6°F-5.2°C 19.6°F-6.9°C 83% Calm Calm 1.6 mph2.6 kmh 29.33 in993.2 mb 0.00 in0.0 mm 0.00 in0.0 mm 0.00 in0.0 mm
11:56 PM 22.6°F-5.2°C 19.6°F-6.9°C 83% Calm Calm 0.7 mph1.1 kmh 29.33 in993.2 mb 0.00 in0.0 mm 0.00 in0.0 mm 0.00 in0.0 mm